<?xml version="1.0" encoding="UTF-8" standalone="no" ?>
<gpx xmlns="http://www.topografix.com/GPX/1/1" xmlns:xsi="http://www.w3.org/2001/XMLSchema-instance" xsi:schemaLocation="http://www.topografix.com/GPX/1/1 http://www.topografix.com/GPX/1/1/gpx.xsd" version="1.1" creator="VisuGPX - https://www.visugpx.com">
  <metadata>
    <name>2020-06-30 14:52:24</name>
  </metadata>
  <trk>
    <name><![CDATA[2020-06-30 14:52:24]]></name>
    <trkseg>
      <trkpt lat="48.15969" lon="-0.19794">
        <ele>152.03</ele>
        <time>2020-06-30T06:54:44Z</time>
      </trkpt>
      <trkpt lat="48.15969" lon="-0.19805">
        <ele>150.58</ele>
        <time>2020-06-30T07:02:17Z</time>
      </trkpt>
      <trkpt lat="48.15965" lon="-0.19818">
        <ele>151.06</ele>
        <time>2020-06-30T07:02:38Z</time>
      </trkpt>
      <trkpt lat="48.15958" lon="-0.1983">
        <ele>151.06</ele>
        <time>2020-06-30T07:02:50Z</time>
      </trkpt>
      <trkpt lat="48.15955" lon="-0.19844">
        <ele>151.06</ele>
        <time>2020-06-30T07:03:04Z</time>
      </trkpt>
      <trkpt lat="48.15953" lon="-0.19859">
        <ele>151.06</ele>
        <time>2020-06-30T07:03:13Z</time>
      </trkpt>
      <trkpt lat="48.1595" lon="-0.19874">
        <ele>151.06</ele>
        <time>2020-06-30T07:03:24Z</time>
      </trkpt>
      <trkpt lat="48.15948" lon="-0.19888">
        <ele>152.51</ele>
        <time>2020-06-30T07:03:34Z</time>
      </trkpt>
      <trkpt lat="48.15945" lon="-0.19902">
        <ele>152.51</ele>
        <time>2020-06-30T07:03:45Z</time>
      </trkpt>
      <trkpt lat="48.1594" lon="-0.19915">
        <ele>152.51</ele>
        <time>2020-06-30T07:04:11Z</time>
      </trkpt>
      <trkpt lat="48.15931" lon="-0.19919">
        <ele>152.03</ele>
        <time>2020-06-30T07:05:49Z</time>
      </trkpt>
      <trkpt lat="48.15922" lon="-0.19911">
        <ele>152.51</ele>
        <time>2020-06-30T07:06:00Z</time>
      </trkpt>
      <trkpt lat="48.15912" lon="-0.19906">
        <ele>151.06</ele>
        <time>2020-06-30T07:06:10Z</time>
      </trkpt>
      <trkpt lat="48.15903" lon="-0.19912">
        <ele>151.06</ele>
        <time>2020-06-30T07:06:22Z</time>
      </trkpt>
      <trkpt lat="48.15903" lon="-0.19929">
        <ele>150.58</ele>
        <time>2020-06-30T07:06:34Z</time>
      </trkpt>
      <trkpt lat="48.15902" lon="-0.19944">
        <ele>150.58</ele>
        <time>2020-06-30T07:06:44Z</time>
      </trkpt>
      <trkpt lat="48.15898" lon="-0.19957">
        <ele>149.62</ele>
        <time>2020-06-30T07:06:55Z</time>
      </trkpt>
      <trkpt lat="48.15893" lon="-0.19972">
        <ele>150.58</ele>
        <time>2020-06-30T07:07:07Z</time>
      </trkpt>
      <trkpt lat="48.15886" lon="-0.19984">
        <ele>149.62</ele>
        <time>2020-06-30T07:07:19Z</time>
      </trkpt>
      <trkpt lat="48.15877" lon="-0.19992">
        <ele>148.66</ele>
        <time>2020-06-30T07:07:28Z</time>
      </trkpt>
      <trkpt lat="48.15867" lon="-0.19995">
        <ele>148.18</ele>
        <time>2020-06-30T07:07:37Z</time>
      </trkpt>
      <trkpt lat="48.15859" lon="-0.20005">
        <ele>147.7</ele>
        <time>2020-06-30T07:07:46Z</time>
      </trkpt>
      <trkpt lat="48.15849" lon="-0.2001">
        <ele>146.74</ele>
        <time>2020-06-30T07:07:56Z</time>
      </trkpt>
      <trkpt lat="48.1584" lon="-0.20016">
        <ele>145.78</ele>
        <time>2020-06-30T07:08:05Z</time>
      </trkpt>
      <trkpt lat="48.15828" lon="-0.20021">
        <ele>145.78</ele>
        <time>2020-06-30T07:08:16Z</time>
      </trkpt>
      <trkpt lat="48.15815" lon="-0.20025">
        <ele>145.3</ele>
        <time>2020-06-30T07:08:26Z</time>
      </trkpt>
      <trkpt lat="48.15807" lon="-0.2003">
        <ele>144.82</ele>
        <time>2020-06-30T07:08:35Z</time>
      </trkpt>
      <trkpt lat="48.15798" lon="-0.20035">
        <ele>144.82</ele>
        <time>2020-06-30T07:08:44Z</time>
      </trkpt>
      <trkpt lat="48.1579" lon="-0.20044">
        <ele>144.82</ele>
        <time>2020-06-30T07:08:54Z</time>
      </trkpt>
      <trkpt lat="48.15782" lon="-0.20055">
        <ele>144.82</ele>
        <time>2020-06-30T07:09:03Z</time>
      </trkpt>
      <trkpt lat="48.15777" lon="-0.20067">
        <ele>144.34</ele>
        <time>2020-06-30T07:09:12Z</time>
      </trkpt>
      <trkpt lat="48.15772" lon="-0.20079">
        <ele>144.34</ele>
        <time>2020-06-30T07:09:20Z</time>
      </trkpt>
      <trkpt lat="48.15767" lon="-0.20091">
        <ele>144.34</ele>
        <time>2020-06-30T07:09:29Z</time>
      </trkpt>
      <trkpt lat="48.15761" lon="-0.20103">
        <ele>144.34</ele>
        <time>2020-06-30T07:09:39Z</time>
      </trkpt>
      <trkpt lat="48.15753" lon="-0.20114">
        <ele>144.34</ele>
        <time>2020-06-30T07:09:48Z</time>
      </trkpt>
      <trkpt lat="48.15748" lon="-0.20125">
        <ele>143.85</ele>
        <time>2020-06-30T07:09:57Z</time>
      </trkpt>
      <trkpt lat="48.15743" lon="-0.20136">
        <ele>143.85</ele>
        <time>2020-06-30T07:10:05Z</time>
      </trkpt>
      <trkpt lat="48.15735" lon="-0.20146">
        <ele>143.85</ele>
        <time>2020-06-30T07:10:14Z</time>
      </trkpt>
      <trkpt lat="48.15729" lon="-0.20156">
        <ele>143.85</ele>
        <time>2020-06-30T07:10:22Z</time>
      </trkpt>
      <trkpt lat="48.15719" lon="-0.20156">
        <ele>143.85</ele>
        <time>2020-06-30T07:10:31Z</time>
      </trkpt>
      <trkpt lat="48.15709" lon="-0.2015">
        <ele>143.37</ele>
        <time>2020-06-30T07:10:40Z</time>
      </trkpt>
      <trkpt lat="48.15699" lon="-0.20143">
        <ele>143.37</ele>
        <time>2020-06-30T07:10:48Z</time>
      </trkpt>
      <trkpt lat="48.15691" lon="-0.20137">
        <ele>143.37</ele>
        <time>2020-06-30T07:10:58Z</time>
      </trkpt>
      <trkpt lat="48.15682" lon="-0.20127">
        <ele>143.37</ele>
        <time>2020-06-30T07:11:07Z</time>
      </trkpt>
      <trkpt lat="48.15675" lon="-0.20119">
        <ele>143.37</ele>
        <time>2020-06-30T07:11:16Z</time>
      </trkpt>
      <trkpt lat="48.15666" lon="-0.20111">
        <ele>143.37</ele>
        <time>2020-06-30T07:11:24Z</time>
      </trkpt>
      <trkpt lat="48.15657" lon="-0.20104">
        <ele>143.37</ele>
        <time>2020-06-30T07:11:32Z</time>
      </trkpt>
      <trkpt lat="48.15647" lon="-0.20096">
        <ele>143.37</ele>
        <time>2020-06-30T07:11:41Z</time>
      </trkpt>
      <trkpt lat="48.15638" lon="-0.20088">
        <ele>143.37</ele>
        <time>2020-06-30T07:11:50Z</time>
      </trkpt>
      <trkpt lat="48.1563" lon="-0.20079">
        <ele>143.37</ele>
        <time>2020-06-30T07:11:59Z</time>
      </trkpt>
      <trkpt lat="48.15622" lon="-0.20073">
        <ele>143.37</ele>
        <time>2020-06-30T07:12:08Z</time>
      </trkpt>
      <trkpt lat="48.15614" lon="-0.20065">
        <ele>143.37</ele>
        <time>2020-06-30T07:12:17Z</time>
      </trkpt>
      <trkpt lat="48.15605" lon="-0.20056">
        <ele>143.37</ele>
        <time>2020-06-30T07:12:26Z</time>
      </trkpt>
      <trkpt lat="48.15597" lon="-0.20048">
        <ele>143.37</ele>
        <time>2020-06-30T07:12:43Z</time>
      </trkpt>
      <trkpt lat="48.15585" lon="-0.2004">
        <ele>143.37</ele>
        <time>2020-06-30T07:13:05Z</time>
      </trkpt>
      <trkpt lat="48.15576" lon="-0.20032">
        <ele>142.89</ele>
        <time>2020-06-30T07:13:17Z</time>
      </trkpt>
      <trkpt lat="48.15565" lon="-0.20023">
        <ele>142.89</ele>
        <time>2020-06-30T07:13:30Z</time>
      </trkpt>
      <trkpt lat="48.15553" lon="-0.20013">
        <ele>141.45</ele>
        <time>2020-06-30T07:13:43Z</time>
      </trkpt>
      <trkpt lat="48.15544" lon="-0.20004">
        <ele>140.97</ele>
        <time>2020-06-30T07:13:52Z</time>
      </trkpt>
      <trkpt lat="48.15537" lon="-0.19994">
        <ele>140.01</ele>
        <time>2020-06-30T07:14:01Z</time>
      </trkpt>
      <trkpt lat="48.15527" lon="-0.19984">
        <ele>139.53</ele>
        <time>2020-06-30T07:14:12Z</time>
      </trkpt>
      <trkpt lat="48.15517" lon="-0.19973">
        <ele>138.57</ele>
        <time>2020-06-30T07:14:22Z</time>
      </trkpt>
      <trkpt lat="48.15507" lon="-0.19965">
        <ele>138.09</ele>
        <time>2020-06-30T07:14:31Z</time>
      </trkpt>
      <trkpt lat="48.15498" lon="-0.19955">
        <ele>138.09</ele>
        <time>2020-06-30T07:14:40Z</time>
      </trkpt>
      <trkpt lat="48.15488" lon="-0.19945">
        <ele>137.61</ele>
        <time>2020-06-30T07:14:49Z</time>
      </trkpt>
      <trkpt lat="48.15478" lon="-0.19936">
        <ele>137.61</ele>
        <time>2020-06-30T07:14:58Z</time>
      </trkpt>
      <trkpt lat="48.15471" lon="-0.19926">
        <ele>137.13</ele>
        <time>2020-06-30T07:15:07Z</time>
      </trkpt>
      <trkpt lat="48.15463" lon="-0.19916">
        <ele>137.13</ele>
        <time>2020-06-30T07:15:16Z</time>
      </trkpt>
      <trkpt lat="48.15456" lon="-0.19906">
        <ele>137.13</ele>
        <time>2020-06-30T07:15:25Z</time>
      </trkpt>
      <trkpt lat="48.15449" lon="-0.19893">
        <ele>137.13</ele>
        <time>2020-06-30T07:15:36Z</time>
      </trkpt>
      <trkpt lat="48.15444" lon="-0.19881">
        <ele>137.13</ele>
        <time>2020-06-30T07:15:44Z</time>
      </trkpt>
      <trkpt lat="48.15439" lon="-0.1987">
        <ele>137.13</ele>
        <time>2020-06-30T07:15:53Z</time>
      </trkpt>
      <trkpt lat="48.15432" lon="-0.19857">
        <ele>137.13</ele>
        <time>2020-06-30T07:16:02Z</time>
      </trkpt>
      <trkpt lat="48.15425" lon="-0.19845">
        <ele>137.13</ele>
        <time>2020-06-30T07:16:11Z</time>
      </trkpt>
      <trkpt lat="48.15421" lon="-0.19832">
        <ele>137.13</ele>
        <time>2020-06-30T07:16:20Z</time>
      </trkpt>
      <trkpt lat="48.15416" lon="-0.19819">
        <ele>138.57</ele>
        <time>2020-06-30T07:16:30Z</time>
      </trkpt>
      <trkpt lat="48.15414" lon="-0.19803">
        <ele>138.57</ele>
        <time>2020-06-30T07:16:40Z</time>
      </trkpt>
      <trkpt lat="48.15413" lon="-0.19789">
        <ele>139.53</ele>
        <time>2020-06-30T07:16:49Z</time>
      </trkpt>
      <trkpt lat="48.15414" lon="-0.19775">
        <ele>140.01</ele>
        <time>2020-06-30T07:16:57Z</time>
      </trkpt>
      <trkpt lat="48.15415" lon="-0.1976">
        <ele>140.01</ele>
        <time>2020-06-30T07:17:06Z</time>
      </trkpt>
      <trkpt lat="48.15417" lon="-0.19745">
        <ele>140.97</ele>
        <time>2020-06-30T07:17:15Z</time>
      </trkpt>
      <trkpt lat="48.1542" lon="-0.19729">
        <ele>141.45</ele>
        <time>2020-06-30T07:17:24Z</time>
      </trkpt>
      <trkpt lat="48.15424" lon="-0.19715">
        <ele>141.93</ele>
        <time>2020-06-30T07:17:33Z</time>
      </trkpt>
      <trkpt lat="48.15428" lon="-0.19702">
        <ele>142.41</ele>
        <time>2020-06-30T07:17:41Z</time>
      </trkpt>
      <trkpt lat="48.15432" lon="-0.19688">
        <ele>142.41</ele>
        <time>2020-06-30T07:17:50Z</time>
      </trkpt>
      <trkpt lat="48.15436" lon="-0.19676">
        <ele>143.37</ele>
        <time>2020-06-30T07:17:58Z</time>
      </trkpt>
      <trkpt lat="48.15438" lon="-0.19661">
        <ele>143.85</ele>
        <time>2020-06-30T07:18:07Z</time>
      </trkpt>
      <trkpt lat="48.15437" lon="-0.19646">
        <ele>144.34</ele>
        <time>2020-06-30T07:18:16Z</time>
      </trkpt>
      <trkpt lat="48.15441" lon="-0.19631">
        <ele>144.82</ele>
        <time>2020-06-30T07:18:26Z</time>
      </trkpt>
      <trkpt lat="48.15445" lon="-0.19617">
        <ele>145.78</ele>
        <time>2020-06-30T07:18:35Z</time>
      </trkpt>
      <trkpt lat="48.15447" lon="-0.19602">
        <ele>146.26</ele>
        <time>2020-06-30T07:18:44Z</time>
      </trkpt>
      <trkpt lat="48.15451" lon="-0.19587">
        <ele>146.74</ele>
        <time>2020-06-30T07:18:54Z</time>
      </trkpt>
      <trkpt lat="48.15455" lon="-0.19573">
        <ele>147.22</ele>
        <time>2020-06-30T07:19:03Z</time>
      </trkpt>
      <trkpt lat="48.15458" lon="-0.1956">
        <ele>148.18</ele>
        <time>2020-06-30T07:19:11Z</time>
      </trkpt>
      <trkpt lat="48.15461" lon="-0.19546">
        <ele>148.18</ele>
        <time>2020-06-30T07:19:19Z</time>
      </trkpt>
      <trkpt lat="48.15464" lon="-0.19531">
        <ele>148.66</ele>
        <time>2020-06-30T07:19:27Z</time>
      </trkpt>
      <trkpt lat="48.15467" lon="-0.19518">
        <ele>149.14</ele>
        <time>2020-06-30T07:19:35Z</time>
      </trkpt>
      <trkpt lat="48.15471" lon="-0.19504">
        <ele>149.62</ele>
        <time>2020-06-30T07:19:43Z</time>
      </trkpt>
      <trkpt lat="48.15475" lon="-0.1949">
        <ele>150.1</ele>
        <time>2020-06-30T07:19:51Z</time>
      </trkpt>
      <trkpt lat="48.15478" lon="-0.19476">
        <ele>151.06</ele>
        <time>2020-06-30T07:20:00Z</time>
      </trkpt>
      <trkpt lat="48.15481" lon="-0.19461">
        <ele>151.54</ele>
        <time>2020-06-30T07:20:09Z</time>
      </trkpt>
      <trkpt lat="48.15487" lon="-0.19444">
        <ele>150.1</ele>
        <time>2020-06-30T07:20:23Z</time>
      </trkpt>
      <trkpt lat="48.15492" lon="-0.19432">
        <ele>149.62</ele>
        <time>2020-06-30T07:20:32Z</time>
      </trkpt>
      <trkpt lat="48.15494" lon="-0.19417">
        <ele>149.62</ele>
        <time>2020-06-30T07:20:41Z</time>
      </trkpt>
      <trkpt lat="48.15497" lon="-0.19401">
        <ele>149.14</ele>
        <time>2020-06-30T07:20:52Z</time>
      </trkpt>
      <trkpt lat="48.15498" lon="-0.19379">
        <ele>149.14</ele>
        <time>2020-06-30T07:21:07Z</time>
      </trkpt>
      <trkpt lat="48.15501" lon="-0.19359">
        <ele>149.14</ele>
        <time>2020-06-30T07:21:20Z</time>
      </trkpt>
      <trkpt lat="48.15505" lon="-0.19345">
        <ele>148.66</ele>
        <time>2020-06-30T07:21:29Z</time>
      </trkpt>
      <trkpt lat="48.15509" lon="-0.1933">
        <ele>148.66</ele>
        <time>2020-06-30T07:21:38Z</time>
      </trkpt>
      <trkpt lat="48.15512" lon="-0.19311">
        <ele>148.66</ele>
        <time>2020-06-30T07:21:49Z</time>
      </trkpt>
      <trkpt lat="48.15515" lon="-0.19294">
        <ele>148.66</ele>
        <time>2020-06-30T07:22:00Z</time>
      </trkpt>
      <trkpt lat="48.15516" lon="-0.19281">
        <ele>148.66</ele>
        <time>2020-06-30T07:22:09Z</time>
      </trkpt>
      <trkpt lat="48.1552" lon="-0.19268">
        <ele>148.66</ele>
        <time>2020-06-30T07:22:18Z</time>
      </trkpt>
      <trkpt lat="48.15525" lon="-0.19255">
        <ele>150.1</ele>
        <time>2020-06-30T07:22:27Z</time>
      </trkpt>
      <trkpt lat="48.1553" lon="-0.19242">
        <ele>150.1</ele>
        <time>2020-06-30T07:22:35Z</time>
      </trkpt>
      <trkpt lat="48.15534" lon="-0.19226">
        <ele>150.1</ele>
        <time>2020-06-30T07:22:44Z</time>
      </trkpt>
      <trkpt lat="48.15539" lon="-0.19212">
        <ele>150.1</ele>
        <time>2020-06-30T07:22:53Z</time>
      </trkpt>
      <trkpt lat="48.15544" lon="-0.19197">
        <ele>150.1</ele>
        <time>2020-06-30T07:23:03Z</time>
      </trkpt>
      <trkpt lat="48.15549" lon="-0.19183">
        <ele>149.14</ele>
        <time>2020-06-30T07:23:13Z</time>
      </trkpt>
      <trkpt lat="48.15555" lon="-0.19168">
        <ele>148.66</ele>
        <time>2020-06-30T07:23:24Z</time>
      </trkpt>
      <trkpt lat="48.15561" lon="-0.19154">
        <ele>148.66</ele>
        <time>2020-06-30T07:23:33Z</time>
      </trkpt>
      <trkpt lat="48.15566" lon="-0.19139">
        <ele>148.66</ele>
        <time>2020-06-30T07:23:45Z</time>
      </trkpt>
      <trkpt lat="48.15573" lon="-0.19122">
        <ele>148.66</ele>
        <time>2020-06-30T07:23:57Z</time>
      </trkpt>
      <trkpt lat="48.15577" lon="-0.19104">
        <ele>148.66</ele>
        <time>2020-06-30T07:24:08Z</time>
      </trkpt>
      <trkpt lat="48.15579" lon="-0.19089">
        <ele>148.66</ele>
        <time>2020-06-30T07:24:18Z</time>
      </trkpt>
      <trkpt lat="48.15582" lon="-0.19071">
        <ele>148.66</ele>
        <time>2020-06-30T07:24:28Z</time>
      </trkpt>
      <trkpt lat="48.15585" lon="-0.19053">
        <ele>148.66</ele>
        <time>2020-06-30T07:24:37Z</time>
      </trkpt>
      <trkpt lat="48.15588" lon="-0.19039">
        <ele>148.66</ele>
        <time>2020-06-30T07:24:46Z</time>
      </trkpt>
      <trkpt lat="48.15592" lon="-0.19017">
        <ele>150.1</ele>
        <time>2020-06-30T07:25:00Z</time>
      </trkpt>
      <trkpt lat="48.15596" lon="-0.18985">
        <ele>150.1</ele>
        <time>2020-06-30T07:25:19Z</time>
      </trkpt>
      <trkpt lat="48.15604" lon="-0.18915">
        <ele>152.03</ele>
        <time>2020-06-30T07:26:10Z</time>
      </trkpt>
      <trkpt lat="48.1561" lon="-0.1889">
        <ele>152.51</ele>
        <time>2020-06-30T07:26:25Z</time>
      </trkpt>
      <trkpt lat="48.15611" lon="-0.18875">
        <ele>152.51</ele>
        <time>2020-06-30T07:26:34Z</time>
      </trkpt>
      <trkpt lat="48.15614" lon="-0.1886">
        <ele>151.54</ele>
        <time>2020-06-30T07:26:44Z</time>
      </trkpt>
      <trkpt lat="48.15617" lon="-0.18847">
        <ele>151.06</ele>
        <time>2020-06-30T07:26:52Z</time>
      </trkpt>
      <trkpt lat="48.15619" lon="-0.1883">
        <ele>150.1</ele>
        <time>2020-06-30T07:27:02Z</time>
      </trkpt>
      <trkpt lat="48.15624" lon="-0.18815">
        <ele>149.62</ele>
        <time>2020-06-30T07:27:11Z</time>
      </trkpt>
      <trkpt lat="48.15628" lon="-0.188">
        <ele>148.66</ele>
        <time>2020-06-30T07:27:20Z</time>
      </trkpt>
      <trkpt lat="48.15634" lon="-0.18785">
        <ele>147.22</ele>
        <time>2020-06-30T07:27:31Z</time>
      </trkpt>
      <trkpt lat="48.1564" lon="-0.1877">
        <ele>146.26</ele>
        <time>2020-06-30T07:27:40Z</time>
      </trkpt>
      <trkpt lat="48.15648" lon="-0.18761">
        <ele>145.78</ele>
        <time>2020-06-30T07:27:48Z</time>
      </trkpt>
      <trkpt lat="48.15656" lon="-0.18751">
        <ele>144.82</ele>
        <time>2020-06-30T07:27:56Z</time>
      </trkpt>
      <trkpt lat="48.15661" lon="-0.18739">
        <ele>143.37</ele>
        <time>2020-06-30T07:28:05Z</time>
      </trkpt>
      <trkpt lat="48.15667" lon="-0.18727">
        <ele>142.89</ele>
        <time>2020-06-30T07:28:15Z</time>
      </trkpt>
      <trkpt lat="48.15672" lon="-0.18712">
        <ele>141.93</ele>
        <time>2020-06-30T07:28:25Z</time>
      </trkpt>
      <trkpt lat="48.15676" lon="-0.18697">
        <ele>140.97</ele>
        <time>2020-06-30T07:28:34Z</time>
      </trkpt>
      <trkpt lat="48.15679" lon="-0.18682">
        <ele>140.01</ele>
        <time>2020-06-30T07:28:43Z</time>
      </trkpt>
      <trkpt lat="48.15684" lon="-0.1867">
        <ele>139.05</ele>
        <time>2020-06-30T07:28:52Z</time>
      </trkpt>
      <trkpt lat="48.1569" lon="-0.18656">
        <ele>138.57</ele>
        <time>2020-06-30T07:29:02Z</time>
      </trkpt>
      <trkpt lat="48.15693" lon="-0.18641">
        <ele>137.61</ele>
        <time>2020-06-30T07:29:13Z</time>
      </trkpt>
      <trkpt lat="48.15697" lon="-0.18627">
        <ele>137.13</ele>
        <time>2020-06-30T07:29:23Z</time>
      </trkpt>
      <trkpt lat="48.15702" lon="-0.18613">
        <ele>136.64</ele>
        <time>2020-06-30T07:29:32Z</time>
      </trkpt>
      <trkpt lat="48.15707" lon="-0.18599">
        <ele>136.16</ele>
        <time>2020-06-30T07:29:42Z</time>
      </trkpt>
      <trkpt lat="48.15712" lon="-0.18584">
        <ele>134.72</ele>
        <time>2020-06-30T07:29:54Z</time>
      </trkpt>
      <trkpt lat="48.15721" lon="-0.18544">
        <ele>133.76</ele>
        <time>2020-06-30T07:31:07Z</time>
      </trkpt>
      <trkpt lat="48.15724" lon="-0.18521">
        <ele>133.28</ele>
        <time>2020-06-30T07:31:22Z</time>
      </trkpt>
      <trkpt lat="48.15767" lon="-0.1849">
        <ele>132.8</ele>
        <time>2020-06-30T07:33:07Z</time>
      </trkpt>
      <trkpt lat="48.15783" lon="-0.18484">
        <ele>132.32</ele>
        <time>2020-06-30T07:33:22Z</time>
      </trkpt>
      <trkpt lat="48.15797" lon="-0.1848">
        <ele>132.32</ele>
        <time>2020-06-30T07:33:33Z</time>
      </trkpt>
      <trkpt lat="48.15806" lon="-0.18479">
        <ele>132.32</ele>
        <time>2020-06-30T07:34:32Z</time>
      </trkpt>
      <trkpt lat="48.15817" lon="-0.18476">
        <ele>132.32</ele>
        <time>2020-06-30T07:34:44Z</time>
      </trkpt>
      <trkpt lat="48.15828" lon="-0.18473">
        <ele>132.32</ele>
        <time>2020-06-30T07:34:52Z</time>
      </trkpt>
      <trkpt lat="48.15838" lon="-0.18469">
        <ele>133.28</ele>
        <time>2020-06-30T07:35:01Z</time>
      </trkpt>
      <trkpt lat="48.1585" lon="-0.18471">
        <ele>134.24</ele>
        <time>2020-06-30T07:35:35Z</time>
      </trkpt>
      <trkpt lat="48.15861" lon="-0.18467">
        <ele>136.16</ele>
        <time>2020-06-30T07:35:49Z</time>
      </trkpt>
      <trkpt lat="48.15874" lon="-0.1846">
        <ele>137.13</ele>
        <time>2020-06-30T07:36:38Z</time>
      </trkpt>
      <trkpt lat="48.15883" lon="-0.18466">
        <ele>137.61</ele>
        <time>2020-06-30T07:36:47Z</time>
      </trkpt>
      <trkpt lat="48.15892" lon="-0.18473">
        <ele>138.57</ele>
        <time>2020-06-30T07:36:56Z</time>
      </trkpt>
      <trkpt lat="48.15893" lon="-0.18467">
        <ele>139.05</ele>
        <time>2020-06-30T07:37:17Z</time>
      </trkpt>
      <trkpt lat="48.15885" lon="-0.1846">
        <ele>138.09</ele>
        <time>2020-06-30T07:37:26Z</time>
      </trkpt>
      <trkpt lat="48.15878" lon="-0.18456">
        <ele>137.13</ele>
        <time>2020-06-30T07:37:35Z</time>
      </trkpt>
      <trkpt lat="48.15872" lon="-0.18444">
        <ele>136.64</ele>
        <time>2020-06-30T07:37:43Z</time>
      </trkpt>
      <trkpt lat="48.15871" lon="-0.18417">
        <ele>135.68</ele>
        <time>2020-06-30T07:38:57Z</time>
      </trkpt>
      <trkpt lat="48.15871" lon="-0.18399">
        <ele>135.68</ele>
        <time>2020-06-30T07:39:07Z</time>
      </trkpt>
      <trkpt lat="48.15871" lon="-0.18383">
        <ele>135.2</ele>
        <time>2020-06-30T07:39:16Z</time>
      </trkpt>
      <trkpt lat="48.15872" lon="-0.18366">
        <ele>135.2</ele>
        <time>2020-06-30T07:39:24Z</time>
      </trkpt>
      <trkpt lat="48.15873" lon="-0.1835">
        <ele>135.2</ele>
        <time>2020-06-30T07:39:33Z</time>
      </trkpt>
      <trkpt lat="48.15873" lon="-0.18334">
        <ele>135.2</ele>
        <time>2020-06-30T07:39:42Z</time>
      </trkpt>
      <trkpt lat="48.15874" lon="-0.18319">
        <ele>135.2</ele>
        <time>2020-06-30T07:39:50Z</time>
      </trkpt>
      <trkpt lat="48.15874" lon="-0.18306">
        <ele>134.72</ele>
        <time>2020-06-30T07:39:56Z</time>
      </trkpt>
      <trkpt lat="48.15875" lon="-0.18292">
        <ele>134.72</ele>
        <time>2020-06-30T07:40:04Z</time>
      </trkpt>
      <trkpt lat="48.15876" lon="-0.18278">
        <ele>134.72</ele>
        <time>2020-06-30T07:40:11Z</time>
      </trkpt>
      <trkpt lat="48.15876" lon="-0.18264">
        <ele>134.72</ele>
        <time>2020-06-30T07:40:18Z</time>
      </trkpt>
      <trkpt lat="48.15877" lon="-0.1825">
        <ele>134.72</ele>
        <time>2020-06-30T07:40:27Z</time>
      </trkpt>
      <trkpt lat="48.15876" lon="-0.18236">
        <ele>134.72</ele>
        <time>2020-06-30T07:40:34Z</time>
      </trkpt>
      <trkpt lat="48.15875" lon="-0.18221">
        <ele>134.72</ele>
        <time>2020-06-30T07:40:42Z</time>
      </trkpt>
      <trkpt lat="48.15871" lon="-0.18207">
        <ele>134.72</ele>
        <time>2020-06-30T07:40:50Z</time>
      </trkpt>
      <trkpt lat="48.15868" lon="-0.18191">
        <ele>134.72</ele>
        <time>2020-06-30T07:40:58Z</time>
      </trkpt>
      <trkpt lat="48.15864" lon="-0.18178">
        <ele>136.16</ele>
        <time>2020-06-30T07:41:06Z</time>
      </trkpt>
      <trkpt lat="48.15859" lon="-0.18166">
        <ele>135.68</ele>
        <time>2020-06-30T07:41:14Z</time>
      </trkpt>
      <trkpt lat="48.15854" lon="-0.18155">
        <ele>135.68</ele>
        <time>2020-06-30T07:41:21Z</time>
      </trkpt>
      <trkpt lat="48.15849" lon="-0.18142">
        <ele>136.64</ele>
        <time>2020-06-30T07:41:29Z</time>
      </trkpt>
      <trkpt lat="48.15844" lon="-0.1813">
        <ele>136.64</ele>
        <time>2020-06-30T07:41:37Z</time>
      </trkpt>
      <trkpt lat="48.15839" lon="-0.18118">
        <ele>137.13</ele>
        <time>2020-06-30T07:41:45Z</time>
      </trkpt>
      <trkpt lat="48.15834" lon="-0.18107">
        <ele>137.13</ele>
        <time>2020-06-30T07:41:52Z</time>
      </trkpt>
      <trkpt lat="48.15829" lon="-0.18093">
        <ele>137.61</ele>
        <time>2020-06-30T07:42:00Z</time>
      </trkpt>
      <trkpt lat="48.15823" lon="-0.1808">
        <ele>137.61</ele>
        <time>2020-06-30T07:42:09Z</time>
      </trkpt>
      <trkpt lat="48.15817" lon="-0.18068">
        <ele>137.61</ele>
        <time>2020-06-30T07:42:16Z</time>
      </trkpt>
      <trkpt lat="48.15813" lon="-0.18054">
        <ele>137.61</ele>
        <time>2020-06-30T07:42:24Z</time>
      </trkpt>
      <trkpt lat="48.15808" lon="-0.18041">
        <ele>137.61</ele>
        <time>2020-06-30T07:42:32Z</time>
      </trkpt>
      <trkpt lat="48.15803" lon="-0.18031">
        <ele>138.09</ele>
        <time>2020-06-30T07:42:39Z</time>
      </trkpt>
      <trkpt lat="48.15798" lon="-0.18019">
        <ele>138.09</ele>
        <time>2020-06-30T07:42:48Z</time>
      </trkpt>
      <trkpt lat="48.15792" lon="-0.18005">
        <ele>138.09</ele>
        <time>2020-06-30T07:42:57Z</time>
      </trkpt>
      <trkpt lat="48.1578" lon="-0.17982">
        <ele>138.09</ele>
        <time>2020-06-30T07:43:38Z</time>
      </trkpt>
      <trkpt lat="48.15779" lon="-0.17972">
        <ele>138.57</ele>
        <time>2020-06-30T07:46:06Z</time>
      </trkpt>
      <trkpt lat="48.15775" lon="-0.17958">
        <ele>138.57</ele>
        <time>2020-06-30T07:46:15Z</time>
      </trkpt>
      <trkpt lat="48.1577" lon="-0.17944">
        <ele>137.61</ele>
        <time>2020-06-30T07:46:24Z</time>
      </trkpt>
      <trkpt lat="48.15767" lon="-0.17931">
        <ele>137.13</ele>
        <time>2020-06-30T07:46:32Z</time>
      </trkpt>
      <trkpt lat="48.15763" lon="-0.17919">
        <ele>137.13</ele>
        <time>2020-06-30T07:46:40Z</time>
      </trkpt>
      <trkpt lat="48.15759" lon="-0.17907">
        <ele>136.64</ele>
        <time>2020-06-30T07:46:48Z</time>
      </trkpt>
      <trkpt lat="48.15755" lon="-0.17894">
        <ele>136.64</ele>
        <time>2020-06-30T07:46:56Z</time>
      </trkpt>
      <trkpt lat="48.15752" lon="-0.17881">
        <ele>136.16</ele>
        <time>2020-06-30T07:47:04Z</time>
      </trkpt>
      <trkpt lat="48.15749" lon="-0.17867">
        <ele>136.16</ele>
        <time>2020-06-30T07:47:12Z</time>
      </trkpt>
      <trkpt lat="48.15747" lon="-0.17852">
        <ele>135.68</ele>
        <time>2020-06-30T07:47:20Z</time>
      </trkpt>
      <trkpt lat="48.15745" lon="-0.17839">
        <ele>135.2</ele>
        <time>2020-06-30T07:47:28Z</time>
      </trkpt>
      <trkpt lat="48.15743" lon="-0.17823">
        <ele>134.72</ele>
        <time>2020-06-30T07:47:37Z</time>
      </trkpt>
      <trkpt lat="48.15741" lon="-0.17808">
        <ele>134.72</ele>
        <time>2020-06-30T07:47:45Z</time>
      </trkpt>
      <trkpt lat="48.1574" lon="-0.17794">
        <ele>134.72</ele>
        <time>2020-06-30T07:47:53Z</time>
      </trkpt>
      <trkpt lat="48.15738" lon="-0.1778">
        <ele>134.72</ele>
        <time>2020-06-30T07:48:01Z</time>
      </trkpt>
      <trkpt lat="48.15738" lon="-0.17765">
        <ele>134.24</ele>
        <time>2020-06-30T07:48:10Z</time>
      </trkpt>
      <trkpt lat="48.15736" lon="-0.1775">
        <ele>133.76</ele>
        <time>2020-06-30T07:48:18Z</time>
      </trkpt>
      <trkpt lat="48.15733" lon="-0.17733">
        <ele>133.28</ele>
        <time>2020-06-30T07:48:26Z</time>
      </trkpt>
      <trkpt lat="48.15732" lon="-0.17719">
        <ele>132.8</ele>
        <time>2020-06-30T07:48:33Z</time>
      </trkpt>
      <trkpt lat="48.1573" lon="-0.17704">
        <ele>132.32</ele>
        <time>2020-06-30T07:48:42Z</time>
      </trkpt>
      <trkpt lat="48.15729" lon="-0.17689">
        <ele>132.32</ele>
        <time>2020-06-30T07:48:49Z</time>
      </trkpt>
      <trkpt lat="48.15727" lon="-0.17675">
        <ele>131.84</ele>
        <time>2020-06-30T07:48:57Z</time>
      </trkpt>
      <trkpt lat="48.15726" lon="-0.1766">
        <ele>131.36</ele>
        <time>2020-06-30T07:49:04Z</time>
      </trkpt>
      <trkpt lat="48.15724" lon="-0.17647">
        <ele>130.88</ele>
        <time>2020-06-30T07:49:11Z</time>
      </trkpt>
      <trkpt lat="48.15724" lon="-0.17633">
        <ele>130.88</ele>
        <time>2020-06-30T07:49:18Z</time>
      </trkpt>
      <trkpt lat="48.15723" lon="-0.17619">
        <ele>130.4</ele>
        <time>2020-06-30T07:49:26Z</time>
      </trkpt>
      <trkpt lat="48.15723" lon="-0.17605">
        <ele>129.92</ele>
        <time>2020-06-30T07:49:34Z</time>
      </trkpt>
      <trkpt lat="48.15722" lon="-0.17589">
        <ele>129.92</ele>
        <time>2020-06-30T07:49:43Z</time>
      </trkpt>
      <trkpt lat="48.15722" lon="-0.17573">
        <ele>129.92</ele>
        <time>2020-06-30T07:49:57Z</time>
      </trkpt>
      <trkpt lat="48.15723" lon="-0.1756">
        <ele>129.92</ele>
        <time>2020-06-30T07:50:05Z</time>
      </trkpt>
      <trkpt lat="48.15724" lon="-0.17546">
        <ele>129.92</ele>
        <time>2020-06-30T07:50:13Z</time>
      </trkpt>
      <trkpt lat="48.15724" lon="-0.1753">
        <ele>129.43</ele>
        <time>2020-06-30T07:50:21Z</time>
      </trkpt>
      <trkpt lat="48.15724" lon="-0.17514">
        <ele>128.95</ele>
        <time>2020-06-30T07:50:30Z</time>
      </trkpt>
      <trkpt lat="48.15725" lon="-0.17499">
        <ele>128.95</ele>
        <time>2020-06-30T07:50:38Z</time>
      </trkpt>
      <trkpt lat="48.15725" lon="-0.17483">
        <ele>128.95</ele>
        <time>2020-06-30T07:50:47Z</time>
      </trkpt>
      <trkpt lat="48.15726" lon="-0.17467">
        <ele>128.95</ele>
        <time>2020-06-30T07:50:58Z</time>
      </trkpt>
      <trkpt lat="48.15729" lon="-0.17452">
        <ele>128.95</ele>
        <time>2020-06-30T07:52:01Z</time>
      </trkpt>
      <trkpt lat="48.15729" lon="-0.17438">
        <ele>128.47</ele>
        <time>2020-06-30T07:52:09Z</time>
      </trkpt>
      <trkpt lat="48.1573" lon="-0.17424">
        <ele>128.47</ele>
        <time>2020-06-30T07:52:16Z</time>
      </trkpt>
      <trkpt lat="48.15729" lon="-0.17409">
        <ele>128.47</ele>
        <time>2020-06-30T07:52:25Z</time>
      </trkpt>
      <trkpt lat="48.1573" lon="-0.17384">
        <ele>127.99</ele>
        <time>2020-06-30T07:52:46Z</time>
      </trkpt>
      <trkpt lat="48.15732" lon="-0.1737">
        <ele>127.99</ele>
        <time>2020-06-30T07:52:54Z</time>
      </trkpt>
      <trkpt lat="48.15732" lon="-0.17351">
        <ele>127.99</ele>
        <time>2020-06-30T07:53:10Z</time>
      </trkpt>
      <trkpt lat="48.15733" lon="-0.17338">
        <ele>127.99</ele>
        <time>2020-06-30T07:53:22Z</time>
      </trkpt>
      <trkpt lat="48.15739" lon="-0.17307">
        <ele>129.43</ele>
        <time>2020-06-30T07:55:02Z</time>
      </trkpt>
      <trkpt lat="48.15745" lon="-0.17291">
        <ele>129.92</ele>
        <time>2020-06-30T07:55:15Z</time>
      </trkpt>
      <trkpt lat="48.15751" lon="-0.17276">
        <ele>130.4</ele>
        <time>2020-06-30T07:55:25Z</time>
      </trkpt>
      <trkpt lat="48.15758" lon="-0.17262">
        <ele>130.4</ele>
        <time>2020-06-30T07:55:35Z</time>
      </trkpt>
      <trkpt lat="48.15763" lon="-0.17247">
        <ele>130.88</ele>
        <time>2020-06-30T07:55:42Z</time>
      </trkpt>
      <trkpt lat="48.15768" lon="-0.17234">
        <ele>131.36</ele>
        <time>2020-06-30T07:55:50Z</time>
      </trkpt>
      <trkpt lat="48.15772" lon="-0.17221">
        <ele>131.84</ele>
        <time>2020-06-30T07:55:57Z</time>
      </trkpt>
      <trkpt lat="48.15777" lon="-0.17209">
        <ele>131.84</ele>
        <time>2020-06-30T07:56:05Z</time>
      </trkpt>
      <trkpt lat="48.15781" lon="-0.17197">
        <ele>131.84</ele>
        <time>2020-06-30T07:56:12Z</time>
      </trkpt>
      <trkpt lat="48.15788" lon="-0.17184">
        <ele>132.8</ele>
        <time>2020-06-30T07:56:20Z</time>
      </trkpt>
      <trkpt lat="48.15792" lon="-0.17171">
        <ele>132.8</ele>
        <time>2020-06-30T07:56:27Z</time>
      </trkpt>
      <trkpt lat="48.15796" lon="-0.17158">
        <ele>132.8</ele>
        <time>2020-06-30T07:56:35Z</time>
      </trkpt>
      <trkpt lat="48.15801" lon="-0.17143">
        <ele>132.8</ele>
        <time>2020-06-30T07:56:43Z</time>
      </trkpt>
      <trkpt lat="48.15806" lon="-0.17129">
        <ele>132.8</ele>
        <time>2020-06-30T07:56:51Z</time>
      </trkpt>
      <trkpt lat="48.15809" lon="-0.17117">
        <ele>132.8</ele>
        <time>2020-06-30T07:56:58Z</time>
      </trkpt>
      <trkpt lat="48.15814" lon="-0.17102">
        <ele>133.28</ele>
        <time>2020-06-30T07:57:06Z</time>
      </trkpt>
      <trkpt lat="48.15817" lon="-0.1709">
        <ele>133.28</ele>
        <time>2020-06-30T07:57:12Z</time>
      </trkpt>
      <trkpt lat="48.15825" lon="-0.17079">
        <ele>133.76</ele>
        <time>2020-06-30T07:57:37Z</time>
      </trkpt>
      <trkpt lat="48.15855" lon="-0.17114">
        <ele>140.01</ele>
        <time>2020-06-30T07:58:34Z</time>
      </trkpt>
      <trkpt lat="48.15961" lon="-0.1717">
        <ele>152.03</ele>
        <time>2020-06-30T08:00:35Z</time>
      </trkpt>
      <trkpt lat="48.1602" lon="-0.17197">
        <ele>154.91</ele>
        <time>2020-06-30T08:01:35Z</time>
      </trkpt>
      <trkpt lat="48.16031" lon="-0.17198">
        <ele>155.39</ele>
        <time>2020-06-30T08:01:44Z</time>
      </trkpt>
      <trkpt lat="48.16045" lon="-0.17204">
        <ele>155.39</ele>
        <time>2020-06-30T08:02:00Z</time>
      </trkpt>
      <trkpt lat="48.1606" lon="-0.17214">
        <ele>155.39</ele>
        <time>2020-06-30T08:02:14Z</time>
      </trkpt>
      <trkpt lat="48.16075" lon="-0.1722">
        <ele>155.87</ele>
        <time>2020-06-30T08:02:28Z</time>
      </trkpt>
      <trkpt lat="48.16089" lon="-0.17228">
        <ele>155.87</ele>
        <time>2020-06-30T08:02:39Z</time>
      </trkpt>
      <trkpt lat="48.16103" lon="-0.17235">
        <ele>155.87</ele>
        <time>2020-06-30T08:02:53Z</time>
      </trkpt>
      <trkpt lat="48.16126" lon="-0.1725">
        <ele>155.87</ele>
        <time>2020-06-30T08:03:16Z</time>
      </trkpt>
      <trkpt lat="48.16172" lon="-0.17269">
        <ele>155.39</ele>
        <time>2020-06-30T08:04:01Z</time>
      </trkpt>
      <trkpt lat="48.162" lon="-0.17281">
        <ele>153.95</ele>
        <time>2020-06-30T08:04:29Z</time>
      </trkpt>
      <trkpt lat="48.16215" lon="-0.17288">
        <ele>153.47</ele>
        <time>2020-06-30T08:04:56Z</time>
      </trkpt>
      <trkpt lat="48.16225" lon="-0.17297">
        <ele>154.91</ele>
        <time>2020-06-30T08:05:42Z</time>
      </trkpt>
      <trkpt lat="48.16234" lon="-0.17296">
        <ele>155.39</ele>
        <time>2020-06-30T08:05:52Z</time>
      </trkpt>
      <trkpt lat="48.16245" lon="-0.17289">
        <ele>155.39</ele>
        <time>2020-06-30T08:06:23Z</time>
      </trkpt>
      <trkpt lat="48.16254" lon="-0.17283">
        <ele>155.39</ele>
        <time>2020-06-30T08:06:33Z</time>
      </trkpt>
      <trkpt lat="48.16263" lon="-0.17278">
        <ele>155.39</ele>
        <time>2020-06-30T08:06:45Z</time>
      </trkpt>
      <trkpt lat="48.16272" lon="-0.17278">
        <ele>155.39</ele>
        <time>2020-06-30T08:06:55Z</time>
      </trkpt>
      <trkpt lat="48.16282" lon="-0.17281">
        <ele>153.95</ele>
        <time>2020-06-30T08:07:06Z</time>
      </trkpt>
      <trkpt lat="48.16292" lon="-0.17284">
        <ele>153.95</ele>
        <time>2020-06-30T08:07:15Z</time>
      </trkpt>
      <trkpt lat="48.16301" lon="-0.17289">
        <ele>153.95</ele>
        <time>2020-06-30T08:07:24Z</time>
      </trkpt>
      <trkpt lat="48.1631" lon="-0.17295">
        <ele>153.95</ele>
        <time>2020-06-30T08:07:33Z</time>
      </trkpt>
      <trkpt lat="48.16318" lon="-0.17302">
        <ele>155.39</ele>
        <time>2020-06-30T08:07:42Z</time>
      </trkpt>
      <trkpt lat="48.16327" lon="-0.17308">
        <ele>155.39</ele>
        <time>2020-06-30T08:07:51Z</time>
      </trkpt>
      <trkpt lat="48.16336" lon="-0.17312">
        <ele>155.39</ele>
        <time>2020-06-30T08:07:59Z</time>
      </trkpt>
      <trkpt lat="48.16345" lon="-0.17317">
        <ele>155.39</ele>
        <time>2020-06-30T08:08:07Z</time>
      </trkpt>
      <trkpt lat="48.16354" lon="-0.17319">
        <ele>155.39</ele>
        <time>2020-06-30T08:08:15Z</time>
      </trkpt>
      <trkpt lat="48.16364" lon="-0.1732">
        <ele>155.39</ele>
        <time>2020-06-30T08:08:24Z</time>
      </trkpt>
      <trkpt lat="48.16373" lon="-0.17323">
        <ele>155.39</ele>
        <time>2020-06-30T08:08:34Z</time>
      </trkpt>
      <trkpt lat="48.16382" lon="-0.17329">
        <ele>155.39</ele>
        <time>2020-06-30T08:08:44Z</time>
      </trkpt>
      <trkpt lat="48.16392" lon="-0.17334">
        <ele>155.39</ele>
        <time>2020-06-30T08:08:54Z</time>
      </trkpt>
      <trkpt lat="48.16401" lon="-0.17339">
        <ele>155.39</ele>
        <time>2020-06-30T08:09:04Z</time>
      </trkpt>
      <trkpt lat="48.16411" lon="-0.17343">
        <ele>155.39</ele>
        <time>2020-06-30T08:09:14Z</time>
      </trkpt>
      <trkpt lat="48.1642" lon="-0.17347">
        <ele>155.39</ele>
        <time>2020-06-30T08:09:24Z</time>
      </trkpt>
      <trkpt lat="48.16429" lon="-0.1735">
        <ele>154.43</ele>
        <time>2020-06-30T08:09:34Z</time>
      </trkpt>
      <trkpt lat="48.16438" lon="-0.17354">
        <ele>153.47</ele>
        <time>2020-06-30T08:09:45Z</time>
      </trkpt>
      <trkpt lat="48.16447" lon="-0.17359">
        <ele>152.51</ele>
        <time>2020-06-30T08:09:53Z</time>
      </trkpt>
      <trkpt lat="48.16456" lon="-0.17364">
        <ele>152.03</ele>
        <time>2020-06-30T08:10:02Z</time>
      </trkpt>
      <trkpt lat="48.16464" lon="-0.17371">
        <ele>151.54</ele>
        <time>2020-06-30T08:10:11Z</time>
      </trkpt>
      <trkpt lat="48.16466" lon="-0.17385">
        <ele>151.54</ele>
        <time>2020-06-30T08:10:20Z</time>
      </trkpt>
      <trkpt lat="48.16465" lon="-0.174">
        <ele>151.54</ele>
        <time>2020-06-30T08:10:28Z</time>
      </trkpt>
      <trkpt lat="48.16462" lon="-0.17413">
        <ele>151.54</ele>
        <time>2020-06-30T08:10:36Z</time>
      </trkpt>
      <trkpt lat="48.16459" lon="-0.17426">
        <ele>151.54</ele>
        <time>2020-06-30T08:10:44Z</time>
      </trkpt>
      <trkpt lat="48.16457" lon="-0.1744">
        <ele>151.54</ele>
        <time>2020-06-30T08:10:52Z</time>
      </trkpt>
      <trkpt lat="48.16455" lon="-0.17453">
        <ele>151.54</ele>
        <time>2020-06-30T08:11:00Z</time>
      </trkpt>
      <trkpt lat="48.16454" lon="-0.17467">
        <ele>151.54</ele>
        <time>2020-06-30T08:11:08Z</time>
      </trkpt>
      <trkpt lat="48.16457" lon="-0.1748">
        <ele>151.54</ele>
        <time>2020-06-30T08:11:17Z</time>
      </trkpt>
      <trkpt lat="48.16467" lon="-0.17483">
        <ele>151.06</ele>
        <time>2020-06-30T08:11:26Z</time>
      </trkpt>
      <trkpt lat="48.16476" lon="-0.17484">
        <ele>150.58</ele>
        <time>2020-06-30T08:11:35Z</time>
      </trkpt>
      <trkpt lat="48.16485" lon="-0.17485">
        <ele>150.1</ele>
        <time>2020-06-30T08:11:44Z</time>
      </trkpt>
      <trkpt lat="48.16495" lon="-0.17487">
        <ele>148.66</ele>
        <time>2020-06-30T08:11:57Z</time>
      </trkpt>
      <trkpt lat="48.16506" lon="-0.17486">
        <ele>148.18</ele>
        <time>2020-06-30T08:12:57Z</time>
      </trkpt>
      <trkpt lat="48.16513" lon="-0.17485">
        <ele>148.18</ele>
        <time>2020-06-30T08:13:08Z</time>
      </trkpt>
      <trkpt lat="48.16517" lon="-0.17472">
        <ele>147.7</ele>
        <time>2020-06-30T08:13:19Z</time>
      </trkpt>
      <trkpt lat="48.16521" lon="-0.17459">
        <ele>147.22</ele>
        <time>2020-06-30T08:13:27Z</time>
      </trkpt>
      <trkpt lat="48.16525" lon="-0.17446">
        <ele>146.74</ele>
        <time>2020-06-30T08:13:36Z</time>
      </trkpt>
      <trkpt lat="48.16531" lon="-0.17434">
        <ele>145.78</ele>
        <time>2020-06-30T08:13:45Z</time>
      </trkpt>
      <trkpt lat="48.16535" lon="-0.17422">
        <ele>144.82</ele>
        <time>2020-06-30T08:13:53Z</time>
      </trkpt>
      <trkpt lat="48.16539" lon="-0.17409">
        <ele>144.34</ele>
        <time>2020-06-30T08:14:00Z</time>
      </trkpt>
      <trkpt lat="48.16543" lon="-0.17394">
        <ele>143.85</ele>
        <time>2020-06-30T08:14:09Z</time>
      </trkpt>
      <trkpt lat="48.16547" lon="-0.17382">
        <ele>143.85</ele>
        <time>2020-06-30T08:14:16Z</time>
      </trkpt>
      <trkpt lat="48.16551" lon="-0.1737">
        <ele>143.37</ele>
        <time>2020-06-30T08:14:24Z</time>
      </trkpt>
      <trkpt lat="48.16556" lon="-0.17359">
        <ele>142.89</ele>
        <time>2020-06-30T08:14:32Z</time>
      </trkpt>
      <trkpt lat="48.16559" lon="-0.17346">
        <ele>142.89</ele>
        <time>2020-06-30T08:14:38Z</time>
      </trkpt>
      <trkpt lat="48.16563" lon="-0.17332">
        <ele>142.41</ele>
        <time>2020-06-30T08:14:47Z</time>
      </trkpt>
      <trkpt lat="48.16568" lon="-0.17319">
        <ele>142.41</ele>
        <time>2020-06-30T08:14:55Z</time>
      </trkpt>
      <trkpt lat="48.16572" lon="-0.17306">
        <ele>141.93</ele>
        <time>2020-06-30T08:15:03Z</time>
      </trkpt>
      <trkpt lat="48.16575" lon="-0.17293">
        <ele>141.93</ele>
        <time>2020-06-30T08:15:09Z</time>
      </trkpt>
      <trkpt lat="48.16579" lon="-0.17282">
        <ele>141.93</ele>
        <time>2020-06-30T08:15:16Z</time>
      </trkpt>
      <trkpt lat="48.16583" lon="-0.17269">
        <ele>141.45</ele>
        <time>2020-06-30T08:15:25Z</time>
      </trkpt>
      <trkpt lat="48.16587" lon="-0.17256">
        <ele>141.45</ele>
        <time>2020-06-30T08:15:33Z</time>
      </trkpt>
      <trkpt lat="48.16592" lon="-0.17242">
        <ele>140.97</ele>
        <time>2020-06-30T08:15:42Z</time>
      </trkpt>
      <trkpt lat="48.16596" lon="-0.1723">
        <ele>140.97</ele>
        <time>2020-06-30T08:15:50Z</time>
      </trkpt>
      <trkpt lat="48.16601" lon="-0.17217">
        <ele>140.97</ele>
        <time>2020-06-30T08:15:57Z</time>
      </trkpt>
      <trkpt lat="48.16606" lon="-0.17204">
        <ele>140.49</ele>
        <time>2020-06-30T08:16:06Z</time>
      </trkpt>
      <trkpt lat="48.1661" lon="-0.17191">
        <ele>140.49</ele>
        <time>2020-06-30T08:16:14Z</time>
      </trkpt>
      <trkpt lat="48.16614" lon="-0.17177">
        <ele>140.01</ele>
        <time>2020-06-30T08:16:21Z</time>
      </trkpt>
      <trkpt lat="48.16619" lon="-0.17163">
        <ele>140.01</ele>
        <time>2020-06-30T08:16:30Z</time>
      </trkpt>
      <trkpt lat="48.16623" lon="-0.1715">
        <ele>140.01</ele>
        <time>2020-06-30T08:16:38Z</time>
      </trkpt>
      <trkpt lat="48.16626" lon="-0.17138">
        <ele>140.01</ele>
        <time>2020-06-30T08:16:44Z</time>
      </trkpt>
      <trkpt lat="48.16631" lon="-0.17126">
        <ele>139.53</ele>
        <time>2020-06-30T08:16:52Z</time>
      </trkpt>
      <trkpt lat="48.16636" lon="-0.17114">
        <ele>139.05</ele>
        <time>2020-06-30T08:16:59Z</time>
      </trkpt>
      <trkpt lat="48.1664" lon="-0.171">
        <ele>139.05</ele>
        <time>2020-06-30T08:17:08Z</time>
      </trkpt>
      <trkpt lat="48.16643" lon="-0.17086">
        <ele>138.57</ele>
        <time>2020-06-30T08:17:16Z</time>
      </trkpt>
      <trkpt lat="48.16648" lon="-0.17074">
        <ele>138.57</ele>
        <time>2020-06-30T08:17:24Z</time>
      </trkpt>
      <trkpt lat="48.16654" lon="-0.1706">
        <ele>138.57</ele>
        <time>2020-06-30T08:17:32Z</time>
      </trkpt>
      <trkpt lat="48.16657" lon="-0.17048">
        <ele>138.09</ele>
        <time>2020-06-30T08:17:40Z</time>
      </trkpt>
      <trkpt lat="48.16661" lon="-0.17033">
        <ele>138.09</ele>
        <time>2020-06-30T08:17:47Z</time>
      </trkpt>
      <trkpt lat="48.16666" lon="-0.17019">
        <ele>137.61</ele>
        <time>2020-06-30T08:17:56Z</time>
      </trkpt>
      <trkpt lat="48.1667" lon="-0.17007">
        <ele>137.61</ele>
        <time>2020-06-30T08:18:02Z</time>
      </trkpt>
      <trkpt lat="48.16675" lon="-0.16993">
        <ele>137.61</ele>
        <time>2020-06-30T08:18:11Z</time>
      </trkpt>
      <trkpt lat="48.16679" lon="-0.16981">
        <ele>137.61</ele>
        <time>2020-06-30T08:18:18Z</time>
      </trkpt>
      <trkpt lat="48.16683" lon="-0.16967">
        <ele>137.13</ele>
        <time>2020-06-30T08:18:26Z</time>
      </trkpt>
      <trkpt lat="48.16687" lon="-0.16954">
        <ele>137.13</ele>
        <time>2020-06-30T08:18:35Z</time>
      </trkpt>
      <trkpt lat="48.16691" lon="-0.1694">
        <ele>137.13</ele>
        <time>2020-06-30T08:18:43Z</time>
      </trkpt>
      <trkpt lat="48.16695" lon="-0.16927">
        <ele>137.13</ele>
        <time>2020-06-30T08:18:51Z</time>
      </trkpt>
      <trkpt lat="48.167" lon="-0.16915">
        <ele>137.13</ele>
        <time>2020-06-30T08:18:59Z</time>
      </trkpt>
      <trkpt lat="48.16704" lon="-0.16903">
        <ele>137.13</ele>
        <time>2020-06-30T08:19:05Z</time>
      </trkpt>
      <trkpt lat="48.16709" lon="-0.16889">
        <ele>137.13</ele>
        <time>2020-06-30T08:19:14Z</time>
      </trkpt>
      <trkpt lat="48.16713" lon="-0.16877">
        <ele>137.13</ele>
        <time>2020-06-30T08:19:22Z</time>
      </trkpt>
      <trkpt lat="48.16717" lon="-0.16863">
        <ele>137.13</ele>
        <time>2020-06-30T08:19:29Z</time>
      </trkpt>
      <trkpt lat="48.16721" lon="-0.16851">
        <ele>137.13</ele>
        <time>2020-06-30T08:19:37Z</time>
      </trkpt>
      <trkpt lat="48.16724" lon="-0.16839">
        <ele>137.13</ele>
        <time>2020-06-30T08:19:43Z</time>
      </trkpt>
      <trkpt lat="48.16729" lon="-0.16826">
        <ele>137.13</ele>
        <time>2020-06-30T08:19:51Z</time>
      </trkpt>
      <trkpt lat="48.16733" lon="-0.16812">
        <ele>137.13</ele>
        <time>2020-06-30T08:19:58Z</time>
      </trkpt>
      <trkpt lat="48.16737" lon="-0.168">
        <ele>137.13</ele>
        <time>2020-06-30T08:20:06Z</time>
      </trkpt>
      <trkpt lat="48.16741" lon="-0.16787">
        <ele>137.13</ele>
        <time>2020-06-30T08:20:13Z</time>
      </trkpt>
      <trkpt lat="48.16745" lon="-0.16773">
        <ele>138.57</ele>
        <time>2020-06-30T08:20:22Z</time>
      </trkpt>
      <trkpt lat="48.16751" lon="-0.16761">
        <ele>138.57</ele>
        <time>2020-06-30T08:20:30Z</time>
      </trkpt>
      <trkpt lat="48.16754" lon="-0.16748">
        <ele>139.05</ele>
        <time>2020-06-30T08:20:37Z</time>
      </trkpt>
      <trkpt lat="48.16758" lon="-0.16733">
        <ele>139.05</ele>
        <time>2020-06-30T08:20:45Z</time>
      </trkpt>
      <trkpt lat="48.16764" lon="-0.16721">
        <ele>140.01</ele>
        <time>2020-06-30T08:20:54Z</time>
      </trkpt>
      <trkpt lat="48.16769" lon="-0.16708">
        <ele>140.01</ele>
        <time>2020-06-30T08:21:03Z</time>
      </trkpt>
      <trkpt lat="48.16773" lon="-0.16694">
        <ele>140.49</ele>
        <time>2020-06-30T08:21:15Z</time>
      </trkpt>
      <trkpt lat="48.16778" lon="-0.16678">
        <ele>140.97</ele>
        <time>2020-06-30T08:21:31Z</time>
      </trkpt>
      <trkpt lat="48.16782" lon="-0.16665">
        <ele>140.97</ele>
        <time>2020-06-30T08:21:39Z</time>
      </trkpt>
      <trkpt lat="48.16787" lon="-0.16652">
        <ele>141.45</ele>
        <time>2020-06-30T08:21:48Z</time>
      </trkpt>
      <trkpt lat="48.16791" lon="-0.1664">
        <ele>141.45</ele>
        <time>2020-06-30T08:21:58Z</time>
      </trkpt>
      <trkpt lat="48.16795" lon="-0.16628">
        <ele>141.93</ele>
        <time>2020-06-30T08:22:10Z</time>
      </trkpt>
      <trkpt lat="48.168" lon="-0.16635">
        <ele>142.41</ele>
        <time>2020-06-30T08:22:21Z</time>
      </trkpt>
      <trkpt lat="48.16797" lon="-0.16649">
        <ele>142.41</ele>
        <time>2020-06-30T08:22:29Z</time>
      </trkpt>
      <trkpt lat="48.16794" lon="-0.16662">
        <ele>142.41</ele>
        <time>2020-06-30T08:22:37Z</time>
      </trkpt>
      <trkpt lat="48.16789" lon="-0.16675">
        <ele>140.97</ele>
        <time>2020-06-30T08:22:47Z</time>
      </trkpt>
      <trkpt lat="48.16785" lon="-0.16688">
        <ele>140.97</ele>
        <time>2020-06-30T08:22:56Z</time>
      </trkpt>
      <trkpt lat="48.16783" lon="-0.16702">
        <ele>140.97</ele>
        <time>2020-06-30T08:23:05Z</time>
      </trkpt>
      <trkpt lat="48.1678" lon="-0.16716">
        <ele>140.01</ele>
        <time>2020-06-30T08:23:20Z</time>
      </trkpt>
      <trkpt lat="48.16783" lon="-0.16728">
        <ele>140.01</ele>
        <time>2020-06-30T08:23:29Z</time>
      </trkpt>
      <trkpt lat="48.1679" lon="-0.16743">
        <ele>140.01</ele>
        <time>2020-06-30T08:23:41Z</time>
      </trkpt>
      <trkpt lat="48.16798" lon="-0.16757">
        <ele>140.01</ele>
        <time>2020-06-30T08:23:53Z</time>
      </trkpt>
      <trkpt lat="48.16805" lon="-0.16773">
        <ele>140.01</ele>
        <time>2020-06-30T08:24:02Z</time>
      </trkpt>
      <trkpt lat="48.16812" lon="-0.16786">
        <ele>140.01</ele>
        <time>2020-06-30T08:24:11Z</time>
      </trkpt>
      <trkpt lat="48.1682" lon="-0.16797">
        <ele>140.97</ele>
        <time>2020-06-30T08:24:21Z</time>
      </trkpt>
      <trkpt lat="48.16828" lon="-0.16807">
        <ele>141.93</ele>
        <time>2020-06-30T08:24:29Z</time>
      </trkpt>
      <trkpt lat="48.16835" lon="-0.16816">
        <ele>142.41</ele>
        <time>2020-06-30T08:24:38Z</time>
      </trkpt>
      <trkpt lat="48.16844" lon="-0.16824">
        <ele>142.89</ele>
        <time>2020-06-30T08:24:47Z</time>
      </trkpt>
      <trkpt lat="48.16852" lon="-0.16833">
        <ele>142.89</ele>
        <time>2020-06-30T08:24:56Z</time>
      </trkpt>
      <trkpt lat="48.16872" lon="-0.16855">
        <ele>144.34</ele>
        <time>2020-06-30T08:25:20Z</time>
      </trkpt>
      <trkpt lat="48.16881" lon="-0.16863">
        <ele>144.82</ele>
        <time>2020-06-30T08:25:29Z</time>
      </trkpt>
      <trkpt lat="48.1689" lon="-0.16874">
        <ele>145.3</ele>
        <time>2020-06-30T08:25:38Z</time>
      </trkpt>
      <trkpt lat="48.169" lon="-0.1689">
        <ele>146.26</ele>
        <time>2020-06-30T08:25:52Z</time>
      </trkpt>
      <trkpt lat="48.16913" lon="-0.16903">
        <ele>146.74</ele>
        <time>2020-06-30T08:26:05Z</time>
      </trkpt>
      <trkpt lat="48.16922" lon="-0.16913">
        <ele>147.22</ele>
        <time>2020-06-30T08:26:13Z</time>
      </trkpt>
      <trkpt lat="48.16931" lon="-0.16923">
        <ele>147.22</ele>
        <time>2020-06-30T08:26:22Z</time>
      </trkpt>
      <trkpt lat="48.16938" lon="-0.16933">
        <ele>147.7</ele>
        <time>2020-06-30T08:26:30Z</time>
      </trkpt>
      <trkpt lat="48.16947" lon="-0.16947">
        <ele>148.66</ele>
        <time>2020-06-30T08:26:44Z</time>
      </trkpt>
      <trkpt lat="48.16951" lon="-0.16961">
        <ele>149.14</ele>
        <time>2020-06-30T08:26:53Z</time>
      </trkpt>
      <trkpt lat="48.16956" lon="-0.16975">
        <ele>149.62</ele>
        <time>2020-06-30T08:27:02Z</time>
      </trkpt>
      <trkpt lat="48.1696" lon="-0.1699">
        <ele>150.1</ele>
        <time>2020-06-30T08:27:11Z</time>
      </trkpt>
      <trkpt lat="48.16966" lon="-0.17004">
        <ele>150.58</ele>
        <time>2020-06-30T08:27:19Z</time>
      </trkpt>
      <trkpt lat="48.16972" lon="-0.17017">
        <ele>151.06</ele>
        <time>2020-06-30T08:27:28Z</time>
      </trkpt>
      <trkpt lat="48.16978" lon="-0.17029">
        <ele>151.54</ele>
        <time>2020-06-30T08:27:36Z</time>
      </trkpt>
      <trkpt lat="48.16984" lon="-0.1704">
        <ele>152.03</ele>
        <time>2020-06-30T08:27:45Z</time>
      </trkpt>
      <trkpt lat="48.16991" lon="-0.17051">
        <ele>152.99</ele>
        <time>2020-06-30T08:27:55Z</time>
      </trkpt>
      <trkpt lat="48.17005" lon="-0.1706">
        <ele>154.43</ele>
        <time>2020-06-30T08:28:11Z</time>
      </trkpt>
      <trkpt lat="48.17016" lon="-0.17064">
        <ele>154.91</ele>
        <time>2020-06-30T08:28:19Z</time>
      </trkpt>
      <trkpt lat="48.17026" lon="-0.17069">
        <ele>155.87</ele>
        <time>2020-06-30T08:28:28Z</time>
      </trkpt>
      <trkpt lat="48.17036" lon="-0.17074">
        <ele>155.87</ele>
        <time>2020-06-30T08:28:39Z</time>
      </trkpt>
      <trkpt lat="48.17046" lon="-0.17079">
        <ele>155.87</ele>
        <time>2020-06-30T08:28:50Z</time>
      </trkpt>
      <trkpt lat="48.17055" lon="-0.17084">
        <ele>155.87</ele>
        <time>2020-06-30T08:28:59Z</time>
      </trkpt>
      <trkpt lat="48.17064" lon="-0.17088">
        <ele>155.87</ele>
        <time>2020-06-30T08:29:09Z</time>
      </trkpt>
      <trkpt lat="48.17073" lon="-0.1709">
        <ele>155.87</ele>
        <time>2020-06-30T08:29:17Z</time>
      </trkpt>
      <trkpt lat="48.17084" lon="-0.17094">
        <ele>155.87</ele>
        <time>2020-06-30T08:29:26Z</time>
      </trkpt>
      <trkpt lat="48.17094" lon="-0.17098">
        <ele>156.35</ele>
        <time>2020-06-30T08:29:35Z</time>
      </trkpt>
      <trkpt lat="48.17103" lon="-0.17101">
        <ele>156.83</ele>
        <time>2020-06-30T08:29:44Z</time>
      </trkpt>
      <trkpt lat="48.17113" lon="-0.17104">
        <ele>157.31</ele>
        <time>2020-06-30T08:29:53Z</time>
      </trkpt>
      <trkpt lat="48.17122" lon="-0.17108">
        <ele>158.27</ele>
        <time>2020-06-30T08:30:02Z</time>
      </trkpt>
      <trkpt lat="48.17132" lon="-0.17111">
        <ele>159.24</ele>
        <time>2020-06-30T08:30:12Z</time>
      </trkpt>
      <trkpt lat="48.17141" lon="-0.17116">
        <ele>160.68</ele>
        <time>2020-06-30T08:30:22Z</time>
      </trkpt>
      <trkpt lat="48.17149" lon="-0.17119">
        <ele>162.12</ele>
        <time>2020-06-30T08:30:32Z</time>
      </trkpt>
      <trkpt lat="48.17157" lon="-0.17126">
        <ele>164.04</ele>
        <time>2020-06-30T08:30:43Z</time>
      </trkpt>
      <trkpt lat="48.17166" lon="-0.17134">
        <ele>165.48</ele>
        <time>2020-06-30T08:30:53Z</time>
      </trkpt>
      <trkpt lat="48.17174" lon="-0.17142">
        <ele>166.93</ele>
        <time>2020-06-30T08:31:03Z</time>
      </trkpt>
      <trkpt lat="48.17181" lon="-0.17153">
        <ele>167.89</ele>
        <time>2020-06-30T08:31:12Z</time>
      </trkpt>
      <trkpt lat="48.17186" lon="-0.17166">
        <ele>168.85</ele>
        <time>2020-06-30T08:31:22Z</time>
      </trkpt>
      <trkpt lat="48.17191" lon="-0.17179">
        <ele>169.33</ele>
        <time>2020-06-30T08:31:30Z</time>
      </trkpt>
      <trkpt lat="48.17197" lon="-0.17191">
        <ele>169.81</ele>
        <time>2020-06-30T08:31:38Z</time>
      </trkpt>
      <trkpt lat="48.17203" lon="-0.17202">
        <ele>170.29</ele>
        <time>2020-06-30T08:31:48Z</time>
      </trkpt>
      <trkpt lat="48.17212" lon="-0.17214">
        <ele>171.25</ele>
        <time>2020-06-30T08:31:58Z</time>
      </trkpt>
      <trkpt lat="48.17221" lon="-0.17222">
        <ele>171.73</ele>
        <time>2020-06-30T08:32:07Z</time>
      </trkpt>
      <trkpt lat="48.17231" lon="-0.17225">
        <ele>172.69</ele>
        <time>2020-06-30T08:32:16Z</time>
      </trkpt>
      <trkpt lat="48.17243" lon="-0.1723">
        <ele>174.14</ele>
        <time>2020-06-30T08:32:27Z</time>
      </trkpt>
      <trkpt lat="48.17252" lon="-0.17235">
        <ele>174.62</ele>
        <time>2020-06-30T08:32:35Z</time>
      </trkpt>
      <trkpt lat="48.17261" lon="-0.1724">
        <ele>175.58</ele>
        <time>2020-06-30T08:32:45Z</time>
      </trkpt>
      <trkpt lat="48.17273" lon="-0.17245">
        <ele>177.02</ele>
        <time>2020-06-30T08:32:54Z</time>
      </trkpt>
      <trkpt lat="48.17283" lon="-0.17249">
        <ele>177.5</ele>
        <time>2020-06-30T08:33:04Z</time>
      </trkpt>
      <trkpt lat="48.17293" lon="-0.17252">
        <ele>178.46</ele>
        <time>2020-06-30T08:33:13Z</time>
      </trkpt>
      <trkpt lat="48.17304" lon="-0.17256">
        <ele>179.42</ele>
        <time>2020-06-30T08:33:23Z</time>
      </trkpt>
      <trkpt lat="48.17314" lon="-0.17258">
        <ele>180.38</ele>
        <time>2020-06-30T08:33:32Z</time>
      </trkpt>
      <trkpt lat="48.17324" lon="-0.17258">
        <ele>181.35</ele>
        <time>2020-06-30T08:33:41Z</time>
      </trkpt>
      <trkpt lat="48.17333" lon="-0.17263">
        <ele>182.31</ele>
        <time>2020-06-30T08:33:50Z</time>
      </trkpt>
      <trkpt lat="48.17338" lon="-0.17274">
        <ele>183.27</ele>
        <time>2020-06-30T08:33:59Z</time>
      </trkpt>
      <trkpt lat="48.17342" lon="-0.17287">
        <ele>184.23</ele>
        <time>2020-06-30T08:34:08Z</time>
      </trkpt>
      <trkpt lat="48.17345" lon="-0.17299">
        <ele>184.71</ele>
        <time>2020-06-30T08:34:16Z</time>
      </trkpt>
      <trkpt lat="48.17344" lon="-0.17313">
        <ele>185.67</ele>
        <time>2020-06-30T08:34:25Z</time>
      </trkpt>
      <trkpt lat="48.17335" lon="-0.17327">
        <ele>186.63</ele>
        <time>2020-06-30T08:34:44Z</time>
      </trkpt>
      <trkpt lat="48.17335" lon="-0.17342">
        <ele>187.59</ele>
        <time>2020-06-30T08:34:53Z</time>
      </trkpt>
      <trkpt lat="48.1734" lon="-0.17356">
        <ele>188.56</ele>
        <time>2020-06-30T08:35:03Z</time>
      </trkpt>
      <trkpt lat="48.17344" lon="-0.17371">
        <ele>188.56</ele>
        <time>2020-06-30T08:35:12Z</time>
      </trkpt>
      <trkpt lat="48.17347" lon="-0.17385">
        <ele>190</ele>
        <time>2020-06-30T08:35:21Z</time>
      </trkpt>
      <trkpt lat="48.17352" lon="-0.17405">
        <ele>192.4</ele>
        <time>2020-06-30T08:35:35Z</time>
      </trkpt>
      <trkpt lat="48.17354" lon="-0.1742">
        <ele>193.36</ele>
        <time>2020-06-30T08:35:44Z</time>
      </trkpt>
      <trkpt lat="48.17354" lon="-0.17434">
        <ele>193.84</ele>
        <time>2020-06-30T08:35:53Z</time>
      </trkpt>
      <trkpt lat="48.17355" lon="-0.17448">
        <ele>195.28</ele>
        <time>2020-06-30T08:36:02Z</time>
      </trkpt>
      <trkpt lat="48.17355" lon="-0.17463">
        <ele>196.73</ele>
        <time>2020-06-30T08:36:12Z</time>
      </trkpt>
      <trkpt lat="48.17355" lon="-0.17478">
        <ele>197.69</ele>
        <time>2020-06-30T08:36:23Z</time>
      </trkpt>
      <trkpt lat="48.17356" lon="-0.17493">
        <ele>199.61</ele>
        <time>2020-06-30T08:36:33Z</time>
      </trkpt>
      <trkpt lat="48.17359" lon="-0.1751">
        <ele>201.53</ele>
        <time>2020-06-30T08:36:45Z</time>
      </trkpt>
      <trkpt lat="48.17361" lon="-0.17525">
        <ele>202.98</ele>
        <time>2020-06-30T08:36:55Z</time>
      </trkpt>
      <trkpt lat="48.17362" lon="-0.1754">
        <ele>203.94</ele>
        <time>2020-06-30T08:37:04Z</time>
      </trkpt>
      <trkpt lat="48.17362" lon="-0.17554">
        <ele>204.9</ele>
        <time>2020-06-30T08:37:13Z</time>
      </trkpt>
      <trkpt lat="48.17362" lon="-0.17569">
        <ele>205.38</ele>
        <time>2020-06-30T08:37:21Z</time>
      </trkpt>
      <trkpt lat="48.17364" lon="-0.17583">
        <ele>206.34</ele>
        <time>2020-06-30T08:37:30Z</time>
      </trkpt>
      <trkpt lat="48.17365" lon="-0.17598">
        <ele>207.78</ele>
        <time>2020-06-30T08:37:39Z</time>
      </trkpt>
      <trkpt lat="48.17367" lon="-0.17612">
        <ele>209.22</ele>
        <time>2020-06-30T08:37:49Z</time>
      </trkpt>
      <trkpt lat="48.17369" lon="-0.17628">
        <ele>210.67</ele>
        <time>2020-06-30T08:37:59Z</time>
      </trkpt>
      <trkpt lat="48.17373" lon="-0.17643">
        <ele>211.15</ele>
        <time>2020-06-30T08:38:09Z</time>
      </trkpt>
      <trkpt lat="48.17376" lon="-0.17659">
        <ele>213.55</ele>
        <time>2020-06-30T08:38:19Z</time>
      </trkpt>
      <trkpt lat="48.17379" lon="-0.17673">
        <ele>214.51</ele>
        <time>2020-06-30T08:38:29Z</time>
      </trkpt>
      <trkpt lat="48.17383" lon="-0.17685">
        <ele>214.99</ele>
        <time>2020-06-30T08:38:38Z</time>
      </trkpt>
      <trkpt lat="48.17388" lon="-0.17699">
        <ele>215.95</ele>
        <time>2020-06-30T08:38:49Z</time>
      </trkpt>
      <trkpt lat="48.17396" lon="-0.17716">
        <ele>217.88</ele>
        <time>2020-06-30T08:39:03Z</time>
      </trkpt>
      <trkpt lat="48.17402" lon="-0.17738">
        <ele>219.32</ele>
        <time>2020-06-30T08:50:01Z</time>
      </trkpt>
      <trkpt lat="48.17407" lon="-0.17754">
        <ele>219.32</ele>
        <time>2020-06-30T08:50:16Z</time>
      </trkpt>
      <trkpt lat="48.17411" lon="-0.17769">
        <ele>219.32</ele>
        <time>2020-06-30T08:50:27Z</time>
      </trkpt>
      <trkpt lat="48.17416" lon="-0.17782">
        <ele>219.32</ele>
        <time>2020-06-30T08:50:39Z</time>
      </trkpt>
      <trkpt lat="48.17423" lon="-0.17793">
        <ele>219.8</ele>
        <time>2020-06-30T08:50:48Z</time>
      </trkpt>
      <trkpt lat="48.17431" lon="-0.17803">
        <ele>220.28</ele>
        <time>2020-06-30T08:50:57Z</time>
      </trkpt>
      <trkpt lat="48.17438" lon="-0.17813">
        <ele>220.28</ele>
        <time>2020-06-30T08:51:06Z</time>
      </trkpt>
      <trkpt lat="48.17445" lon="-0.17824">
        <ele>221.24</ele>
        <time>2020-06-30T08:51:16Z</time>
      </trkpt>
      <trkpt lat="48.17452" lon="-0.17834">
        <ele>219.32</ele>
        <time>2020-06-30T08:51:25Z</time>
      </trkpt>
      <trkpt lat="48.17459" lon="-0.17844">
        <ele>219.32</ele>
        <time>2020-06-30T08:51:34Z</time>
      </trkpt>
      <trkpt lat="48.17469" lon="-0.17852">
        <ele>218.36</ele>
        <time>2020-06-30T08:51:43Z</time>
      </trkpt>
      <trkpt lat="48.17477" lon="-0.1785">
        <ele>218.84</ele>
        <time>2020-06-30T08:51:52Z</time>
      </trkpt>
      <trkpt lat="48.17484" lon="-0.17841">
        <ele>218.84</ele>
        <time>2020-06-30T08:52:01Z</time>
      </trkpt>
      <trkpt lat="48.17491" lon="-0.17833">
        <ele>218.84</ele>
        <time>2020-06-30T08:52:10Z</time>
      </trkpt>
      <trkpt lat="48.17499" lon="-0.17825">
        <ele>219.8</ele>
        <time>2020-06-30T08:52:19Z</time>
      </trkpt>
      <trkpt lat="48.17507" lon="-0.17817">
        <ele>219.8</ele>
        <time>2020-06-30T08:52:28Z</time>
      </trkpt>
      <trkpt lat="48.17516" lon="-0.17809">
        <ele>220.28</ele>
        <time>2020-06-30T08:52:36Z</time>
      </trkpt>
      <trkpt lat="48.17524" lon="-0.17797">
        <ele>220.28</ele>
        <time>2020-06-30T08:52:45Z</time>
      </trkpt>
      <trkpt lat="48.17532" lon="-0.17787">
        <ele>220.28</ele>
        <time>2020-06-30T08:52:53Z</time>
      </trkpt>
      <trkpt lat="48.1754" lon="-0.17776">
        <ele>220.28</ele>
        <time>2020-06-30T08:53:02Z</time>
      </trkpt>
      <trkpt lat="48.17549" lon="-0.17767">
        <ele>220.28</ele>
        <time>2020-06-30T08:53:10Z</time>
      </trkpt>
      <trkpt lat="48.17556" lon="-0.17757">
        <ele>220.76</ele>
        <time>2020-06-30T08:53:18Z</time>
      </trkpt>
      <trkpt lat="48.17569" lon="-0.1775">
        <ele>220.76</ele>
        <time>2020-06-30T08:54:20Z</time>
      </trkpt>
      <trkpt lat="48.17575" lon="-0.17759">
        <ele>219.8</ele>
        <time>2020-06-30T08:54:33Z</time>
      </trkpt>
      <trkpt lat="48.17581" lon="-0.1777">
        <ele>219.8</ele>
        <time>2020-06-30T08:54:43Z</time>
      </trkpt>
      <trkpt lat="48.17586" lon="-0.17783">
        <ele>219.8</ele>
        <time>2020-06-30T08:54:52Z</time>
      </trkpt>
      <trkpt lat="48.17589" lon="-0.17797">
        <ele>219.8</ele>
        <time>2020-06-30T08:55:01Z</time>
      </trkpt>
      <trkpt lat="48.17594" lon="-0.1781">
        <ele>219.8</ele>
        <time>2020-06-30T08:55:11Z</time>
      </trkpt>
      <trkpt lat="48.17599" lon="-0.17822">
        <ele>219.8</ele>
        <time>2020-06-30T08:55:19Z</time>
      </trkpt>
      <trkpt lat="48.17605" lon="-0.17832">
        <ele>219.8</ele>
        <time>2020-06-30T08:55:27Z</time>
      </trkpt>
      <trkpt lat="48.17611" lon="-0.17843">
        <ele>220.76</ele>
        <time>2020-06-30T08:55:35Z</time>
      </trkpt>
      <trkpt lat="48.17617" lon="-0.17854">
        <ele>220.76</ele>
        <time>2020-06-30T08:55:43Z</time>
      </trkpt>
      <trkpt lat="48.17623" lon="-0.17864">
        <ele>221.24</ele>
        <time>2020-06-30T08:55:51Z</time>
      </trkpt>
      <trkpt lat="48.1763" lon="-0.17874">
        <ele>221.24</ele>
        <time>2020-06-30T08:55:58Z</time>
      </trkpt>
      <trkpt lat="48.17636" lon="-0.17884">
        <ele>221.24</ele>
        <time>2020-06-30T08:56:06Z</time>
      </trkpt>
      <trkpt lat="48.17642" lon="-0.17897">
        <ele>221.24</ele>
        <time>2020-06-30T08:56:15Z</time>
      </trkpt>
      <trkpt lat="48.17647" lon="-0.17908">
        <ele>221.24</ele>
        <time>2020-06-30T08:56:23Z</time>
      </trkpt>
      <trkpt lat="48.17653" lon="-0.17918">
        <ele>220.28</ele>
        <time>2020-06-30T08:56:31Z</time>
      </trkpt>
      <trkpt lat="48.17659" lon="-0.17928">
        <ele>219.8</ele>
        <time>2020-06-30T08:56:39Z</time>
      </trkpt>
      <trkpt lat="48.17665" lon="-0.1794">
        <ele>218.84</ele>
        <time>2020-06-30T08:56:48Z</time>
      </trkpt>
      <trkpt lat="48.17671" lon="-0.1795">
        <ele>218.84</ele>
        <time>2020-06-30T08:56:55Z</time>
      </trkpt>
      <trkpt lat="48.17678" lon="-0.17961">
        <ele>218.36</ele>
        <time>2020-06-30T08:57:05Z</time>
      </trkpt>
      <trkpt lat="48.17685" lon="-0.17973">
        <ele>218.36</ele>
        <time>2020-06-30T08:57:12Z</time>
      </trkpt>
      <trkpt lat="48.17689" lon="-0.17985">
        <ele>218.36</ele>
        <time>2020-06-30T08:57:20Z</time>
      </trkpt>
      <trkpt lat="48.17692" lon="-0.18">
        <ele>218.36</ele>
        <time>2020-06-30T08:57:28Z</time>
      </trkpt>
      <trkpt lat="48.17695" lon="-0.18014">
        <ele>217.4</ele>
        <time>2020-06-30T08:57:36Z</time>
      </trkpt>
      <trkpt lat="48.17697" lon="-0.18028">
        <ele>217.4</ele>
        <time>2020-06-30T08:57:44Z</time>
      </trkpt>
      <trkpt lat="48.17699" lon="-0.18042">
        <ele>216.91</ele>
        <time>2020-06-30T08:57:51Z</time>
      </trkpt>
      <trkpt lat="48.17701" lon="-0.18057">
        <ele>216.91</ele>
        <time>2020-06-30T08:58:00Z</time>
      </trkpt>
      <trkpt lat="48.17705" lon="-0.18072">
        <ele>216.91</ele>
        <time>2020-06-30T08:58:07Z</time>
      </trkpt>
      <trkpt lat="48.17711" lon="-0.18084">
        <ele>216.91</ele>
        <time>2020-06-30T08:58:15Z</time>
      </trkpt>
      <trkpt lat="48.17716" lon="-0.18095">
        <ele>216.91</ele>
        <time>2020-06-30T08:58:23Z</time>
      </trkpt>
      <trkpt lat="48.17723" lon="-0.18106">
        <ele>216.91</ele>
        <time>2020-06-30T08:58:31Z</time>
      </trkpt>
      <trkpt lat="48.1773" lon="-0.1812">
        <ele>216.91</ele>
        <time>2020-06-30T08:58:43Z</time>
      </trkpt>
      <trkpt lat="48.17741" lon="-0.18135">
        <ele>216.91</ele>
        <time>2020-06-30T08:58:56Z</time>
      </trkpt>
      <trkpt lat="48.1775" lon="-0.18147">
        <ele>217.88</ele>
        <time>2020-06-30T08:59:06Z</time>
      </trkpt>
      <trkpt lat="48.17759" lon="-0.1816">
        <ele>217.88</ele>
        <time>2020-06-30T08:59:16Z</time>
      </trkpt>
      <trkpt lat="48.17769" lon="-0.18172">
        <ele>218.84</ele>
        <time>2020-06-30T08:59:25Z</time>
      </trkpt>
      <trkpt lat="48.17778" lon="-0.18183">
        <ele>218.84</ele>
        <time>2020-06-30T08:59:33Z</time>
      </trkpt>
      <trkpt lat="48.17788" lon="-0.18195">
        <ele>218.84</ele>
        <time>2020-06-30T08:59:42Z</time>
      </trkpt>
      <trkpt lat="48.17797" lon="-0.18205">
        <ele>218.84</ele>
        <time>2020-06-30T08:59:51Z</time>
      </trkpt>
      <trkpt lat="48.17806" lon="-0.18211">
        <ele>218.84</ele>
        <time>2020-06-30T09:00:00Z</time>
      </trkpt>
      <trkpt lat="48.17815" lon="-0.18218">
        <ele>218.84</ele>
        <time>2020-06-30T09:00:09Z</time>
      </trkpt>
      <trkpt lat="48.17824" lon="-0.18226">
        <ele>218.84</ele>
        <time>2020-06-30T09:00:18Z</time>
      </trkpt>
      <trkpt lat="48.17834" lon="-0.18235">
        <ele>219.32</ele>
        <time>2020-06-30T09:00:27Z</time>
      </trkpt>
      <trkpt lat="48.17842" lon="-0.18247">
        <ele>219.32</ele>
        <time>2020-06-30T09:00:37Z</time>
      </trkpt>
      <trkpt lat="48.1785" lon="-0.18257">
        <ele>219.8</ele>
        <time>2020-06-30T09:00:46Z</time>
      </trkpt>
      <trkpt lat="48.17859" lon="-0.18264">
        <ele>220.28</ele>
        <time>2020-06-30T09:00:55Z</time>
      </trkpt>
      <trkpt lat="48.17869" lon="-0.18262">
        <ele>221.24</ele>
        <time>2020-06-30T09:01:09Z</time>
      </trkpt>
      <trkpt lat="48.1788" lon="-0.18268">
        <ele>221.72</ele>
        <time>2020-06-30T09:01:19Z</time>
      </trkpt>
      <trkpt lat="48.1789" lon="-0.18275">
        <ele>223.16</ele>
        <time>2020-06-30T09:01:29Z</time>
      </trkpt>
      <trkpt lat="48.17896" lon="-0.18273">
        <ele>224.12</ele>
        <time>2020-06-30T09:02:51Z</time>
      </trkpt>
      <trkpt lat="48.17903" lon="-0.18261">
        <ele>223.64</ele>
        <time>2020-06-30T09:03:01Z</time>
      </trkpt>
      <trkpt lat="48.17907" lon="-0.18247">
        <ele>222.68</ele>
        <time>2020-06-30T09:03:09Z</time>
      </trkpt>
      <trkpt lat="48.17912" lon="-0.18232">
        <ele>221.72</ele>
        <time>2020-06-30T09:03:21Z</time>
      </trkpt>
      <trkpt lat="48.17921" lon="-0.18219">
        <ele>221.24</ele>
        <time>2020-06-30T09:03:32Z</time>
      </trkpt>
      <trkpt lat="48.17932" lon="-0.18213">
        <ele>220.76</ele>
        <time>2020-06-30T09:03:44Z</time>
      </trkpt>
      <trkpt lat="48.17944" lon="-0.1821">
        <ele>220.76</ele>
        <time>2020-06-30T09:03:55Z</time>
      </trkpt>
      <trkpt lat="48.17959" lon="-0.18211">
        <ele>220.76</ele>
        <time>2020-06-30T09:04:22Z</time>
      </trkpt>
      <trkpt lat="48.17973" lon="-0.18214">
        <ele>220.76</ele>
        <time>2020-06-30T09:04:35Z</time>
      </trkpt>
      <trkpt lat="48.17986" lon="-0.18214">
        <ele>220.76</ele>
        <time>2020-06-30T09:04:54Z</time>
      </trkpt>
      <trkpt lat="48.17998" lon="-0.18218">
        <ele>220.76</ele>
        <time>2020-06-30T09:05:05Z</time>
      </trkpt>
      <trkpt lat="48.18008" lon="-0.1822">
        <ele>220.76</ele>
        <time>2020-06-30T09:05:14Z</time>
      </trkpt>
      <trkpt lat="48.18018" lon="-0.18223">
        <ele>220.76</ele>
        <time>2020-06-30T09:05:23Z</time>
      </trkpt>
      <trkpt lat="48.18029" lon="-0.18226">
        <ele>221.72</ele>
        <time>2020-06-30T09:05:33Z</time>
      </trkpt>
      <trkpt lat="48.18039" lon="-0.18227">
        <ele>221.72</ele>
        <time>2020-06-30T09:05:42Z</time>
      </trkpt>
      <trkpt lat="48.18049" lon="-0.18228">
        <ele>222.2</ele>
        <time>2020-06-30T09:05:51Z</time>
      </trkpt>
      <trkpt lat="48.18059" lon="-0.18227">
        <ele>223.16</ele>
        <time>2020-06-30T09:06:00Z</time>
      </trkpt>
      <trkpt lat="48.1807" lon="-0.18227">
        <ele>223.16</ele>
        <time>2020-06-30T09:06:09Z</time>
      </trkpt>
      <trkpt lat="48.18081" lon="-0.18226">
        <ele>223.64</ele>
        <time>2020-06-30T09:06:18Z</time>
      </trkpt>
      <trkpt lat="48.18092" lon="-0.18224">
        <ele>223.64</ele>
        <time>2020-06-30T09:06:26Z</time>
      </trkpt>
      <trkpt lat="48.18102" lon="-0.18222">
        <ele>224.61</ele>
        <time>2020-06-30T09:06:35Z</time>
      </trkpt>
      <trkpt lat="48.18112" lon="-0.18219">
        <ele>225.09</ele>
        <time>2020-06-30T09:06:43Z</time>
      </trkpt>
      <trkpt lat="48.18122" lon="-0.18216">
        <ele>225.09</ele>
        <time>2020-06-30T09:06:51Z</time>
      </trkpt>
      <trkpt lat="48.18132" lon="-0.18211">
        <ele>225.57</ele>
        <time>2020-06-30T09:07:00Z</time>
      </trkpt>
      <trkpt lat="48.1814" lon="-0.18203">
        <ele>226.05</ele>
        <time>2020-06-30T09:07:09Z</time>
      </trkpt>
      <trkpt lat="48.18148" lon="-0.18195">
        <ele>226.05</ele>
        <time>2020-06-30T09:07:18Z</time>
      </trkpt>
      <trkpt lat="48.18156" lon="-0.18187">
        <ele>226.53</ele>
        <time>2020-06-30T09:07:27Z</time>
      </trkpt>
      <trkpt lat="48.18164" lon="-0.1818">
        <ele>226.53</ele>
        <time>2020-06-30T09:07:36Z</time>
      </trkpt>
      <trkpt lat="48.18173" lon="-0.18171">
        <ele>227.01</ele>
        <time>2020-06-30T09:07:44Z</time>
      </trkpt>
      <trkpt lat="48.18182" lon="-0.18163">
        <ele>227.01</ele>
        <time>2020-06-30T09:07:51Z</time>
      </trkpt>
      <trkpt lat="48.18191" lon="-0.18154">
        <ele>227.01</ele>
        <time>2020-06-30T09:08:00Z</time>
      </trkpt>
      <trkpt lat="48.18199" lon="-0.18147">
        <ele>227.01</ele>
        <time>2020-06-30T09:08:08Z</time>
      </trkpt>
      <trkpt lat="48.18208" lon="-0.18138">
        <ele>227.01</ele>
        <time>2020-06-30T09:08:16Z</time>
      </trkpt>
      <trkpt lat="48.18217" lon="-0.18128">
        <ele>227.01</ele>
        <time>2020-06-30T09:08:25Z</time>
      </trkpt>
      <trkpt lat="48.18225" lon="-0.18121">
        <ele>227.01</ele>
        <time>2020-06-30T09:08:32Z</time>
      </trkpt>
      <trkpt lat="48.18232" lon="-0.18113">
        <ele>227.49</ele>
        <time>2020-06-30T09:08:40Z</time>
      </trkpt>
      <trkpt lat="48.18242" lon="-0.18103">
        <ele>227.97</ele>
        <time>2020-06-30T09:08:50Z</time>
      </trkpt>
      <trkpt lat="48.18252" lon="-0.18096">
        <ele>227.97</ele>
        <time>2020-06-30T09:08:58Z</time>
      </trkpt>
      <trkpt lat="48.18262" lon="-0.18088">
        <ele>228.45</ele>
        <time>2020-06-30T09:09:06Z</time>
      </trkpt>
      <trkpt lat="48.18272" lon="-0.18082">
        <ele>228.45</ele>
        <time>2020-06-30T09:09:14Z</time>
      </trkpt>
      <trkpt lat="48.18281" lon="-0.18076">
        <ele>228.45</ele>
        <time>2020-06-30T09:09:22Z</time>
      </trkpt>
      <trkpt lat="48.18291" lon="-0.18069">
        <ele>228.93</ele>
        <time>2020-06-30T09:09:31Z</time>
      </trkpt>
      <trkpt lat="48.18299" lon="-0.18065">
        <ele>229.41</ele>
        <time>2020-06-30T09:09:39Z</time>
      </trkpt>
      <trkpt lat="48.18309" lon="-0.18062">
        <ele>229.89</ele>
        <time>2020-06-30T09:09:47Z</time>
      </trkpt>
      <trkpt lat="48.18318" lon="-0.18057">
        <ele>230.37</ele>
        <time>2020-06-30T09:09:55Z</time>
      </trkpt>
      <trkpt lat="48.18329" lon="-0.18048">
        <ele>230.37</ele>
        <time>2020-06-30T09:10:04Z</time>
      </trkpt>
      <trkpt lat="48.18339" lon="-0.18039">
        <ele>230.85</ele>
        <time>2020-06-30T09:10:13Z</time>
      </trkpt>
      <trkpt lat="48.1835" lon="-0.18033">
        <ele>231.33</ele>
        <time>2020-06-30T09:10:21Z</time>
      </trkpt>
      <trkpt lat="48.1836" lon="-0.18028">
        <ele>231.33</ele>
        <time>2020-06-30T09:10:30Z</time>
      </trkpt>
      <trkpt lat="48.1837" lon="-0.18025">
        <ele>232.3</ele>
        <time>2020-06-30T09:10:38Z</time>
      </trkpt>
      <trkpt lat="48.1838" lon="-0.18024">
        <ele>232.78</ele>
        <time>2020-06-30T09:10:46Z</time>
      </trkpt>
      <trkpt lat="48.18392" lon="-0.18025">
        <ele>233.26</ele>
        <time>2020-06-30T09:10:55Z</time>
      </trkpt>
      <trkpt lat="48.18402" lon="-0.18028">
        <ele>233.74</ele>
        <time>2020-06-30T09:11:03Z</time>
      </trkpt>
      <trkpt lat="48.18412" lon="-0.1803">
        <ele>234.22</ele>
        <time>2020-06-30T09:11:12Z</time>
      </trkpt>
      <trkpt lat="48.18422" lon="-0.18032">
        <ele>234.7</ele>
        <time>2020-06-30T09:11:20Z</time>
      </trkpt>
      <trkpt lat="48.18433" lon="-0.18035">
        <ele>236.14</ele>
        <time>2020-06-30T09:11:30Z</time>
      </trkpt>
      <trkpt lat="48.18444" lon="-0.18037">
        <ele>236.14</ele>
        <time>2020-06-30T09:11:39Z</time>
      </trkpt>
      <trkpt lat="48.18453" lon="-0.18036">
        <ele>236.62</ele>
        <time>2020-06-30T09:11:48Z</time>
      </trkpt>
      <trkpt lat="48.18465" lon="-0.18035">
        <ele>237.1</ele>
        <time>2020-06-30T09:12:00Z</time>
      </trkpt>
      <trkpt lat="48.18474" lon="-0.1803">
        <ele>237.58</ele>
        <time>2020-06-30T09:12:08Z</time>
      </trkpt>
      <trkpt lat="48.18483" lon="-0.18018">
        <ele>238.06</ele>
        <time>2020-06-30T09:12:18Z</time>
      </trkpt>
      <trkpt lat="48.18492" lon="-0.18009">
        <ele>238.54</ele>
        <time>2020-06-30T09:12:26Z</time>
      </trkpt>
      <trkpt lat="48.185" lon="-0.17999">
        <ele>238.54</ele>
        <time>2020-06-30T09:12:35Z</time>
      </trkpt>
      <trkpt lat="48.18507" lon="-0.1799">
        <ele>239.02</ele>
        <time>2020-06-30T09:12:44Z</time>
      </trkpt>
      <trkpt lat="48.1852" lon="-0.17983">
        <ele>239.51</ele>
        <time>2020-06-30T09:13:31Z</time>
      </trkpt>
      <trkpt lat="48.18533" lon="-0.17971">
        <ele>240.47</ele>
        <time>2020-06-30T09:13:45Z</time>
      </trkpt>
      <trkpt lat="48.18543" lon="-0.17965">
        <ele>240.95</ele>
        <time>2020-06-30T09:13:52Z</time>
      </trkpt>
      <trkpt lat="48.18553" lon="-0.17961">
        <ele>241.43</ele>
        <time>2020-06-30T09:14:01Z</time>
      </trkpt>
      <trkpt lat="48.18564" lon="-0.17957">
        <ele>241.91</ele>
        <time>2020-06-30T09:14:10Z</time>
      </trkpt>
      <trkpt lat="48.18576" lon="-0.17948">
        <ele>242.87</ele>
        <time>2020-06-30T09:14:20Z</time>
      </trkpt>
      <trkpt lat="48.18587" lon="-0.17945">
        <ele>243.83</ele>
        <time>2020-06-30T09:14:28Z</time>
      </trkpt>
      <trkpt lat="48.18598" lon="-0.17942">
        <ele>243.83</ele>
        <time>2020-06-30T09:14:38Z</time>
      </trkpt>
      <trkpt lat="48.1861" lon="-0.1794">
        <ele>244.31</ele>
        <time>2020-06-30T09:14:48Z</time>
      </trkpt>
      <trkpt lat="48.18621" lon="-0.1794">
        <ele>244.31</ele>
        <time>2020-06-30T09:14:56Z</time>
      </trkpt>
      <trkpt lat="48.18632" lon="-0.1794">
        <ele>245.75</ele>
        <time>2020-06-30T09:15:05Z</time>
      </trkpt>
      <trkpt lat="48.18647" lon="-0.17944">
        <ele>246.23</ele>
        <time>2020-06-30T09:15:19Z</time>
      </trkpt>
      <trkpt lat="48.18669" lon="-0.17944">
        <ele>248.16</ele>
        <time>2020-06-30T09:15:40Z</time>
      </trkpt>
      <trkpt lat="48.18697" lon="-0.1795">
        <ele>250.56</ele>
        <time>2020-06-30T09:16:11Z</time>
      </trkpt>
      <trkpt lat="48.18716" lon="-0.17948">
        <ele>251.52</ele>
        <time>2020-06-30T09:16:27Z</time>
      </trkpt>
      <trkpt lat="48.18727" lon="-0.17942">
        <ele>251.52</ele>
        <time>2020-06-30T09:16:37Z</time>
      </trkpt>
      <trkpt lat="48.18737" lon="-0.17932">
        <ele>251.52</ele>
        <time>2020-06-30T09:16:50Z</time>
      </trkpt>
      <trkpt lat="48.18745" lon="-0.17922">
        <ele>251.52</ele>
        <time>2020-06-30T09:16:58Z</time>
      </trkpt>
      <trkpt lat="48.18751" lon="-0.17913">
        <ele>251.52</ele>
        <time>2020-06-30T09:17:06Z</time>
      </trkpt>
      <trkpt lat="48.1876" lon="-0.17899">
        <ele>252</ele>
        <time>2020-06-30T09:17:18Z</time>
      </trkpt>
      <trkpt lat="48.18775" lon="-0.17895">
        <ele>252.48</ele>
        <time>2020-06-30T09:18:16Z</time>
      </trkpt>
      <trkpt lat="48.18749" lon="-0.17957">
        <ele>253.93</ele>
        <time>2020-06-30T09:20:45Z</time>
      </trkpt>
      <trkpt lat="48.18742" lon="-0.1797">
        <ele>254.41</ele>
        <time>2020-06-30T09:20:58Z</time>
      </trkpt>
      <trkpt lat="48.18737" lon="-0.17984">
        <ele>254.41</ele>
        <time>2020-06-30T09:21:08Z</time>
      </trkpt>
      <trkpt lat="48.18734" lon="-0.18002">
        <ele>254.41</ele>
        <time>2020-06-30T09:21:20Z</time>
      </trkpt>
      <trkpt lat="48.1873" lon="-0.1802">
        <ele>255.37</ele>
        <time>2020-06-30T09:21:30Z</time>
      </trkpt>
      <trkpt lat="48.18726" lon="-0.18051">
        <ele>256.81</ele>
        <time>2020-06-30T09:21:50Z</time>
      </trkpt>
      <trkpt lat="48.18722" lon="-0.18078">
        <ele>258.25</ele>
        <time>2020-06-30T09:22:09Z</time>
      </trkpt>
      <trkpt lat="48.18719" lon="-0.18095">
        <ele>258.73</ele>
        <time>2020-06-30T09:22:18Z</time>
      </trkpt>
      <trkpt lat="48.18714" lon="-0.18142">
        <ele>259.69</ele>
        <time>2020-06-30T09:22:50Z</time>
      </trkpt>
      <trkpt lat="48.18695" lon="-0.18171">
        <ele>260.65</ele>
        <time>2020-06-30T09:23:13Z</time>
      </trkpt>
      <trkpt lat="48.18665" lon="-0.18167">
        <ele>261.62</ele>
        <time>2020-06-30T09:23:48Z</time>
      </trkpt>
      <trkpt lat="48.18651" lon="-0.18164">
        <ele>261.62</ele>
        <time>2020-06-30T09:23:57Z</time>
      </trkpt>
      <trkpt lat="48.18633" lon="-0.18165">
        <ele>262.1</ele>
        <time>2020-06-30T09:24:11Z</time>
      </trkpt>
      <trkpt lat="48.18622" lon="-0.18163">
        <ele>262.1</ele>
        <time>2020-06-30T09:24:21Z</time>
      </trkpt>
      <trkpt lat="48.18608" lon="-0.18162">
        <ele>262.1</ele>
        <time>2020-06-30T09:24:32Z</time>
      </trkpt>
      <trkpt lat="48.18596" lon="-0.18163">
        <ele>262.1</ele>
        <time>2020-06-30T09:24:42Z</time>
      </trkpt>
      <trkpt lat="48.18578" lon="-0.18175">
        <ele>262.58</ele>
        <time>2020-06-30T09:25:00Z</time>
      </trkpt>
      <trkpt lat="48.18564" lon="-0.18182">
        <ele>262.58</ele>
        <time>2020-06-30T09:25:12Z</time>
      </trkpt>
      <trkpt lat="48.18553" lon="-0.1819">
        <ele>262.58</ele>
        <time>2020-06-30T09:25:22Z</time>
      </trkpt>
      <trkpt lat="48.18543" lon="-0.18199">
        <ele>262.1</ele>
        <time>2020-06-30T09:25:31Z</time>
      </trkpt>
      <trkpt lat="48.18534" lon="-0.18211">
        <ele>262.1</ele>
        <time>2020-06-30T09:25:40Z</time>
      </trkpt>
      <trkpt lat="48.18522" lon="-0.18221">
        <ele>262.58</ele>
        <time>2020-06-30T09:25:52Z</time>
      </trkpt>
      <trkpt lat="48.18513" lon="-0.18229">
        <ele>262.58</ele>
        <time>2020-06-30T09:26:02Z</time>
      </trkpt>
      <trkpt lat="48.185" lon="-0.18245">
        <ele>262.58</ele>
        <time>2020-06-30T09:26:18Z</time>
      </trkpt>
      <trkpt lat="48.1849" lon="-0.18259">
        <ele>261.14</ele>
        <time>2020-06-30T09:26:30Z</time>
      </trkpt>
      <trkpt lat="48.18482" lon="-0.1827">
        <ele>260.65</ele>
        <time>2020-06-30T09:26:39Z</time>
      </trkpt>
      <trkpt lat="48.18474" lon="-0.18281">
        <ele>259.69</ele>
        <time>2020-06-30T09:26:49Z</time>
      </trkpt>
      <trkpt lat="48.18466" lon="-0.18291">
        <ele>259.21</ele>
        <time>2020-06-30T09:26:57Z</time>
      </trkpt>
      <trkpt lat="48.18456" lon="-0.18303">
        <ele>258.25</ele>
        <time>2020-06-30T09:27:06Z</time>
      </trkpt>
      <trkpt lat="48.18448" lon="-0.18315">
        <ele>257.29</ele>
        <time>2020-06-30T09:27:15Z</time>
      </trkpt>
      <trkpt lat="48.18441" lon="-0.18327">
        <ele>256.81</ele>
        <time>2020-06-30T09:27:25Z</time>
      </trkpt>
      <trkpt lat="48.18429" lon="-0.18337">
        <ele>255.37</ele>
        <time>2020-06-30T09:27:36Z</time>
      </trkpt>
      <trkpt lat="48.18422" lon="-0.18349">
        <ele>254.89</ele>
        <time>2020-06-30T09:27:49Z</time>
      </trkpt>
      <trkpt lat="48.18411" lon="-0.1837">
        <ele>254.41</ele>
        <time>2020-06-30T09:28:03Z</time>
      </trkpt>
      <trkpt lat="48.18402" lon="-0.18384">
        <ele>253.93</ele>
        <time>2020-06-30T09:28:15Z</time>
      </trkpt>
      <trkpt lat="48.18394" lon="-0.18401">
        <ele>252.96</ele>
        <time>2020-06-30T09:28:28Z</time>
      </trkpt>
      <trkpt lat="48.18382" lon="-0.18419">
        <ele>252</ele>
        <time>2020-06-30T09:28:44Z</time>
      </trkpt>
      <trkpt lat="48.18372" lon="-0.18433">
        <ele>252</ele>
        <time>2020-06-30T09:28:54Z</time>
      </trkpt>
      <trkpt lat="48.18356" lon="-0.18452">
        <ele>251.52</ele>
        <time>2020-06-30T09:29:13Z</time>
      </trkpt>
      <trkpt lat="48.18342" lon="-0.18512">
        <ele>251.04</ele>
        <time>2020-06-30T09:30:02Z</time>
      </trkpt>
      <trkpt lat="48.18353" lon="-0.18529">
        <ele>252.48</ele>
        <time>2020-06-30T09:30:17Z</time>
      </trkpt>
      <trkpt lat="48.18368" lon="-0.18549">
        <ele>253.93</ele>
        <time>2020-06-30T09:30:34Z</time>
      </trkpt>
      <trkpt lat="48.18367" lon="-0.18583">
        <ele>253.93</ele>
        <time>2020-06-30T09:30:55Z</time>
      </trkpt>
      <trkpt lat="48.18399" lon="-0.18648">
        <ele>253.93</ele>
        <time>2020-06-30T09:31:54Z</time>
      </trkpt>
      <trkpt lat="48.18408" lon="-0.18659">
        <ele>253.93</ele>
        <time>2020-06-30T09:32:04Z</time>
      </trkpt>
      <trkpt lat="48.18422" lon="-0.18687">
        <ele>252.48</ele>
        <time>2020-06-30T09:32:27Z</time>
      </trkpt>
      <trkpt lat="48.18449" lon="-0.18718">
        <ele>251.52</ele>
        <time>2020-06-30T09:32:56Z</time>
      </trkpt>
      <trkpt lat="48.18467" lon="-0.18784">
        <ele>250.56</ele>
        <time>2020-06-30T09:34:06Z</time>
      </trkpt>
      <trkpt lat="48.18477" lon="-0.18792">
        <ele>250.08</ele>
        <time>2020-06-30T09:34:18Z</time>
      </trkpt>
      <trkpt lat="48.18491" lon="-0.1881">
        <ele>248.64</ele>
        <time>2020-06-30T09:34:36Z</time>
      </trkpt>
      <trkpt lat="48.18501" lon="-0.18826">
        <ele>247.68</ele>
        <time>2020-06-30T09:34:51Z</time>
      </trkpt>
      <trkpt lat="48.18515" lon="-0.18848">
        <ele>247.2</ele>
        <time>2020-06-30T09:35:11Z</time>
      </trkpt>
      <trkpt lat="48.18526" lon="-0.18862">
        <ele>246.72</ele>
        <time>2020-06-30T09:35:23Z</time>
      </trkpt>
      <trkpt lat="48.18539" lon="-0.18883">
        <ele>245.27</ele>
        <time>2020-06-30T09:35:41Z</time>
      </trkpt>
      <trkpt lat="48.18553" lon="-0.18901">
        <ele>244.79</ele>
        <time>2020-06-30T09:35:56Z</time>
      </trkpt>
      <trkpt lat="48.1856" lon="-0.18914">
        <ele>244.31</ele>
        <time>2020-06-30T09:36:06Z</time>
      </trkpt>
      <trkpt lat="48.1857" lon="-0.18952">
        <ele>242.87</ele>
        <time>2020-06-30T09:36:36Z</time>
      </trkpt>
      <trkpt lat="48.18543" lon="-0.18989">
        <ele>246.72</ele>
        <time>2020-06-30T09:37:14Z</time>
      </trkpt>
      <trkpt lat="48.18518" lon="-0.1903">
        <ele>249.12</ele>
        <time>2020-06-30T09:37:49Z</time>
      </trkpt>
      <trkpt lat="48.18512" lon="-0.19044">
        <ele>250.56</ele>
        <time>2020-06-30T09:38:01Z</time>
      </trkpt>
      <trkpt lat="48.18499" lon="-0.19062">
        <ele>251.52</ele>
        <time>2020-06-30T09:38:16Z</time>
      </trkpt>
      <trkpt lat="48.1849" lon="-0.19072">
        <ele>252.48</ele>
        <time>2020-06-30T09:38:25Z</time>
      </trkpt>
      <trkpt lat="48.18482" lon="-0.19083">
        <ele>253.44</ele>
        <time>2020-06-30T09:38:36Z</time>
      </trkpt>
      <trkpt lat="48.18476" lon="-0.19094">
        <ele>253.93</ele>
        <time>2020-06-30T09:38:45Z</time>
      </trkpt>
      <trkpt lat="48.18468" lon="-0.19107">
        <ele>254.89</ele>
        <time>2020-06-30T09:38:57Z</time>
      </trkpt>
      <trkpt lat="48.18457" lon="-0.19124">
        <ele>256.33</ele>
        <time>2020-06-30T09:39:11Z</time>
      </trkpt>
      <trkpt lat="48.18447" lon="-0.19138">
        <ele>256.81</ele>
        <time>2020-06-30T09:39:21Z</time>
      </trkpt>
      <trkpt lat="48.18438" lon="-0.19156">
        <ele>258.25</ele>
        <time>2020-06-30T09:39:34Z</time>
      </trkpt>
      <trkpt lat="48.1842" lon="-0.19181">
        <ele>259.21</ele>
        <time>2020-06-30T09:39:57Z</time>
      </trkpt>
      <trkpt lat="48.1841" lon="-0.19196">
        <ele>259.21</ele>
        <time>2020-06-30T09:40:08Z</time>
      </trkpt>
      <trkpt lat="48.18398" lon="-0.19212">
        <ele>260.17</ele>
        <time>2020-06-30T09:40:21Z</time>
      </trkpt>
      <trkpt lat="48.18388" lon="-0.19233">
        <ele>261.14</ele>
        <time>2020-06-30T09:40:34Z</time>
      </trkpt>
      <trkpt lat="48.18375" lon="-0.19252">
        <ele>261.14</ele>
        <time>2020-06-30T09:40:51Z</time>
      </trkpt>
      <trkpt lat="48.18361" lon="-0.19273">
        <ele>261.62</ele>
        <time>2020-06-30T09:41:08Z</time>
      </trkpt>
      <trkpt lat="48.18347" lon="-0.19295">
        <ele>261.62</ele>
        <time>2020-06-30T09:41:24Z</time>
      </trkpt>
      <trkpt lat="48.18331" lon="-0.19316">
        <ele>261.62</ele>
        <time>2020-06-30T09:41:45Z</time>
      </trkpt>
      <trkpt lat="48.18321" lon="-0.19328">
        <ele>261.14</ele>
        <time>2020-06-30T09:41:56Z</time>
      </trkpt>
      <trkpt lat="48.18313" lon="-0.1934">
        <ele>261.14</ele>
        <time>2020-06-30T09:42:06Z</time>
      </trkpt>
      <trkpt lat="48.18307" lon="-0.19355">
        <ele>261.62</ele>
        <time>2020-06-30T09:42:15Z</time>
      </trkpt>
      <trkpt lat="48.183" lon="-0.19365">
        <ele>261.62</ele>
        <time>2020-06-30T09:42:24Z</time>
      </trkpt>
      <trkpt lat="48.18294" lon="-0.19378">
        <ele>262.1</ele>
        <time>2020-06-30T09:42:34Z</time>
      </trkpt>
      <trkpt lat="48.18286" lon="-0.19391">
        <ele>262.1</ele>
        <time>2020-06-30T09:42:43Z</time>
      </trkpt>
      <trkpt lat="48.1828" lon="-0.19404">
        <ele>262.58</ele>
        <time>2020-06-30T09:42:52Z</time>
      </trkpt>
      <trkpt lat="48.18261" lon="-0.19427">
        <ele>262.58</ele>
        <time>2020-06-30T09:43:14Z</time>
      </trkpt>
      <trkpt lat="48.18251" lon="-0.19441">
        <ele>262.58</ele>
        <time>2020-06-30T09:43:25Z</time>
      </trkpt>
      <trkpt lat="48.18199" lon="-0.19479">
        <ele>268.35</ele>
        <time>2020-06-30T09:44:25Z</time>
      </trkpt>
      <trkpt lat="48.18191" lon="-0.19497">
        <ele>270.75</ele>
        <time>2020-06-30T09:44:41Z</time>
      </trkpt>
      <trkpt lat="48.18155" lon="-0.19518">
        <ele>275.56</ele>
        <time>2020-06-30T09:45:28Z</time>
      </trkpt>
      <trkpt lat="48.18142" lon="-0.19503">
        <ele>277</ele>
        <time>2020-06-30T09:45:41Z</time>
      </trkpt>
      <trkpt lat="48.18128" lon="-0.19492">
        <ele>278.92</ele>
        <time>2020-06-30T09:45:54Z</time>
      </trkpt>
      <trkpt lat="48.18116" lon="-0.19482">
        <ele>279.88</ele>
        <time>2020-06-30T09:46:06Z</time>
      </trkpt>
      <trkpt lat="48.18098" lon="-0.19467">
        <ele>281.32</ele>
        <time>2020-06-30T09:46:25Z</time>
      </trkpt>
      <trkpt lat="48.18088" lon="-0.19457">
        <ele>282.28</ele>
        <time>2020-06-30T09:46:36Z</time>
      </trkpt>
      <trkpt lat="48.1807" lon="-0.19444">
        <ele>283.25</ele>
        <time>2020-06-30T09:46:51Z</time>
      </trkpt>
      <trkpt lat="48.18056" lon="-0.19434">
        <ele>284.21</ele>
        <time>2020-06-30T09:47:03Z</time>
      </trkpt>
      <trkpt lat="48.1804" lon="-0.19422">
        <ele>284.69</ele>
        <time>2020-06-30T09:47:19Z</time>
      </trkpt>
      <trkpt lat="48.18015" lon="-0.19436">
        <ele>285.17</ele>
        <time>2020-06-30T09:47:57Z</time>
      </trkpt>
      <trkpt lat="48.18007" lon="-0.1947">
        <ele>285.65</ele>
        <time>2020-06-30T09:48:21Z</time>
      </trkpt>
      <trkpt lat="48.17998" lon="-0.19492">
        <ele>285.65</ele>
        <time>2020-06-30T09:48:38Z</time>
      </trkpt>
      <trkpt lat="48.17992" lon="-0.19515">
        <ele>286.13</ele>
        <time>2020-06-30T09:48:53Z</time>
      </trkpt>
      <trkpt lat="48.17985" lon="-0.19547">
        <ele>286.61</ele>
        <time>2020-06-30T09:49:09Z</time>
      </trkpt>
      <trkpt lat="48.17972" lon="-0.19587">
        <ele>287.09</ele>
        <time>2020-06-30T09:49:35Z</time>
      </trkpt>
      <trkpt lat="48.17962" lon="-0.19629">
        <ele>287.09</ele>
        <time>2020-06-30T09:49:58Z</time>
      </trkpt>
      <trkpt lat="48.17956" lon="-0.19655">
        <ele>287.09</ele>
        <time>2020-06-30T09:50:12Z</time>
      </trkpt>
      <trkpt lat="48.17945" lon="-0.19698">
        <ele>287.09</ele>
        <time>2020-06-30T09:50:36Z</time>
      </trkpt>
      <trkpt lat="48.17924" lon="-0.19749">
        <ele>285.65</ele>
        <time>2020-06-30T09:51:16Z</time>
      </trkpt>
      <trkpt lat="48.17916" lon="-0.19775">
        <ele>285.17</ele>
        <time>2020-06-30T09:51:32Z</time>
      </trkpt>
      <trkpt lat="48.179" lon="-0.19816">
        <ele>283.73</ele>
        <time>2020-06-30T09:52:02Z</time>
      </trkpt>
      <trkpt lat="48.1788" lon="-0.1986">
        <ele>283.25</ele>
        <time>2020-06-30T09:52:32Z</time>
      </trkpt>
      <trkpt lat="48.1787" lon="-0.19892">
        <ele>281.8</ele>
        <time>2020-06-30T09:52:51Z</time>
      </trkpt>
      <trkpt lat="48.17846" lon="-0.19958">
        <ele>279.88</ele>
        <time>2020-06-30T09:53:39Z</time>
      </trkpt>
      <trkpt lat="48.17838" lon="-0.19986">
        <ele>279.88</ele>
        <time>2020-06-30T09:53:51Z</time>
      </trkpt>
      <trkpt lat="48.17826" lon="-0.20006">
        <ele>278.92</ele>
        <time>2020-06-30T09:54:06Z</time>
      </trkpt>
      <trkpt lat="48.17814" lon="-0.20022">
        <ele>278.92</ele>
        <time>2020-06-30T09:54:21Z</time>
      </trkpt>
      <trkpt lat="48.17805" lon="-0.20034">
        <ele>278.92</ele>
        <time>2020-06-30T09:54:32Z</time>
      </trkpt>
      <trkpt lat="48.1779" lon="-0.20044">
        <ele>278.92</ele>
        <time>2020-06-30T09:54:51Z</time>
      </trkpt>
      <trkpt lat="48.17756" lon="-0.20075">
        <ele>278.92</ele>
        <time>2020-06-30T09:55:54Z</time>
      </trkpt>
      <trkpt lat="48.17734" lon="-0.2009">
        <ele>278.44</ele>
        <time>2020-06-30T09:56:19Z</time>
      </trkpt>
      <trkpt lat="48.17681" lon="-0.20206">
        <ele>279.88</ele>
        <time>2020-06-30T09:57:40Z</time>
      </trkpt>
      <trkpt lat="48.17657" lon="-0.20256">
        <ele>281.32</ele>
        <time>2020-06-30T09:58:21Z</time>
      </trkpt>
      <trkpt lat="48.17638" lon="-0.20286">
        <ele>283.73</ele>
        <time>2020-06-30T09:58:48Z</time>
      </trkpt>
      <trkpt lat="48.17622" lon="-0.20313">
        <ele>285.65</ele>
        <time>2020-06-30T09:59:11Z</time>
      </trkpt>
      <trkpt lat="48.17614" lon="-0.20327">
        <ele>286.13</ele>
        <time>2020-06-30T09:59:22Z</time>
      </trkpt>
      <trkpt lat="48.17617" lon="-0.20432">
        <ele>290.46</ele>
        <time>2020-06-30T10:00:27Z</time>
      </trkpt>
      <trkpt lat="48.17614" lon="-0.20466">
        <ele>290.94</ele>
        <time>2020-06-30T10:00:48Z</time>
      </trkpt>
      <trkpt lat="48.17612" lon="-0.20488">
        <ele>291.42</ele>
        <time>2020-06-30T10:01:02Z</time>
      </trkpt>
      <trkpt lat="48.17602" lon="-0.20517">
        <ele>291.42</ele>
        <time>2020-06-30T10:01:24Z</time>
      </trkpt>
      <trkpt lat="48.17599" lon="-0.20538">
        <ele>291.42</ele>
        <time>2020-06-30T10:01:37Z</time>
      </trkpt>
      <trkpt lat="48.17595" lon="-0.20565">
        <ele>291.42</ele>
        <time>2020-06-30T10:01:53Z</time>
      </trkpt>
      <trkpt lat="48.17594" lon="-0.20588">
        <ele>291.42</ele>
        <time>2020-06-30T10:02:04Z</time>
      </trkpt>
      <trkpt lat="48.17592" lon="-0.20601">
        <ele>291.42</ele>
        <time>2020-06-30T10:02:13Z</time>
      </trkpt>
      <trkpt lat="48.17588" lon="-0.20615">
        <ele>291.42</ele>
        <time>2020-06-30T10:02:23Z</time>
      </trkpt>
      <trkpt lat="48.1759" lon="-0.20638">
        <ele>291.9</ele>
        <time>2020-06-30T10:02:35Z</time>
      </trkpt>
      <trkpt lat="48.17586" lon="-0.20656">
        <ele>292.38</ele>
        <time>2020-06-30T10:02:47Z</time>
      </trkpt>
      <trkpt lat="48.17587" lon="-0.2068">
        <ele>292.86</ele>
        <time>2020-06-30T10:02:59Z</time>
      </trkpt>
      <trkpt lat="48.17582" lon="-0.20725">
        <ele>294.3</ele>
        <time>2020-06-30T10:03:27Z</time>
      </trkpt>
      <trkpt lat="48.17565" lon="-0.20761">
        <ele>295.26</ele>
        <time>2020-06-30T10:05:26Z</time>
      </trkpt>
      <trkpt lat="48.17562" lon="-0.20906">
        <ele>296.7</ele>
        <time>2020-06-30T11:09:23Z</time>
      </trkpt>
      <trkpt lat="48.1755" lon="-0.20947">
        <ele>294.3</ele>
        <time>2020-06-30T11:09:54Z</time>
      </trkpt>
      <trkpt lat="48.17547" lon="-0.20965">
        <ele>292.86</ele>
        <time>2020-06-30T11:10:05Z</time>
      </trkpt>
      <trkpt lat="48.1753" lon="-0.21024">
        <ele>290.46</ele>
        <time>2020-06-30T11:11:02Z</time>
      </trkpt>
      <trkpt lat="48.17508" lon="-0.21071">
        <ele>290.46</ele>
        <time>2020-06-30T11:11:45Z</time>
      </trkpt>
      <trkpt lat="48.17494" lon="-0.21109">
        <ele>290.46</ele>
        <time>2020-06-30T11:12:14Z</time>
      </trkpt>
      <trkpt lat="48.17485" lon="-0.21137">
        <ele>289.97</ele>
        <time>2020-06-30T11:12:29Z</time>
      </trkpt>
      <trkpt lat="48.17477" lon="-0.21152">
        <ele>289.97</ele>
        <time>2020-06-30T11:12:41Z</time>
      </trkpt>
      <trkpt lat="48.17466" lon="-0.21178">
        <ele>289.97</ele>
        <time>2020-06-30T11:13:02Z</time>
      </trkpt>
      <trkpt lat="48.1746" lon="-0.21194">
        <ele>289.49</ele>
        <time>2020-06-30T11:13:12Z</time>
      </trkpt>
      <trkpt lat="48.17453" lon="-0.21214">
        <ele>289.49</ele>
        <time>2020-06-30T11:13:27Z</time>
      </trkpt>
      <trkpt lat="48.17446" lon="-0.21228">
        <ele>288.53</ele>
        <time>2020-06-30T11:13:37Z</time>
      </trkpt>
      <trkpt lat="48.17432" lon="-0.21247">
        <ele>287.57</ele>
        <time>2020-06-30T11:14:52Z</time>
      </trkpt>
      <trkpt lat="48.1743" lon="-0.21261">
        <ele>287.09</ele>
        <time>2020-06-30T11:15:03Z</time>
      </trkpt>
      <trkpt lat="48.17431" lon="-0.21275">
        <ele>287.09</ele>
        <time>2020-06-30T11:15:15Z</time>
      </trkpt>
      <trkpt lat="48.17427" lon="-0.2129">
        <ele>287.09</ele>
        <time>2020-06-30T11:15:24Z</time>
      </trkpt>
      <trkpt lat="48.17425" lon="-0.21305">
        <ele>286.61</ele>
        <time>2020-06-30T11:15:33Z</time>
      </trkpt>
      <trkpt lat="48.17421" lon="-0.21322">
        <ele>286.61</ele>
        <time>2020-06-30T11:15:43Z</time>
      </trkpt>
      <trkpt lat="48.17417" lon="-0.21338">
        <ele>286.61</ele>
        <time>2020-06-30T11:15:52Z</time>
      </trkpt>
      <trkpt lat="48.17413" lon="-0.21355">
        <ele>287.57</ele>
        <time>2020-06-30T11:16:04Z</time>
      </trkpt>
      <trkpt lat="48.17402" lon="-0.21377">
        <ele>286.13</ele>
        <time>2020-06-30T11:16:43Z</time>
      </trkpt>
      <trkpt lat="48.17397" lon="-0.21393">
        <ele>285.17</ele>
        <time>2020-06-30T11:16:55Z</time>
      </trkpt>
      <trkpt lat="48.1739" lon="-0.21408">
        <ele>284.69</ele>
        <time>2020-06-30T11:17:05Z</time>
      </trkpt>
      <trkpt lat="48.17385" lon="-0.21422">
        <ele>283.73</ele>
        <time>2020-06-30T11:17:16Z</time>
      </trkpt>
      <trkpt lat="48.17381" lon="-0.21437">
        <ele>283.73</ele>
        <time>2020-06-30T11:17:26Z</time>
      </trkpt>
      <trkpt lat="48.17377" lon="-0.21455">
        <ele>282.77</ele>
        <time>2020-06-30T11:17:38Z</time>
      </trkpt>
      <trkpt lat="48.17367" lon="-0.21479">
        <ele>280.84</ele>
        <time>2020-06-30T11:17:57Z</time>
      </trkpt>
      <trkpt lat="48.17361" lon="-0.21495">
        <ele>280.84</ele>
        <time>2020-06-30T11:18:07Z</time>
      </trkpt>
      <trkpt lat="48.17353" lon="-0.21507">
        <ele>279.88</ele>
        <time>2020-06-30T11:18:16Z</time>
      </trkpt>
      <trkpt lat="48.1734" lon="-0.21533">
        <ele>279.4</ele>
        <time>2020-06-30T11:18:35Z</time>
      </trkpt>
      <trkpt lat="48.17331" lon="-0.2155">
        <ele>278.92</ele>
        <time>2020-06-30T11:18:47Z</time>
      </trkpt>
      <trkpt lat="48.17322" lon="-0.21561">
        <ele>277.96</ele>
        <time>2020-06-30T11:18:58Z</time>
      </trkpt>
      <trkpt lat="48.17315" lon="-0.21577">
        <ele>277.48</ele>
        <time>2020-06-30T11:19:09Z</time>
      </trkpt>
      <trkpt lat="48.1731" lon="-0.21594">
        <ele>277.48</ele>
        <time>2020-06-30T11:19:18Z</time>
      </trkpt>
      <trkpt lat="48.17305" lon="-0.21615">
        <ele>277</ele>
        <time>2020-06-30T11:19:37Z</time>
      </trkpt>
      <trkpt lat="48.17304" lon="-0.21631">
        <ele>277</ele>
        <time>2020-06-30T11:19:47Z</time>
      </trkpt>
      <trkpt lat="48.17301" lon="-0.2165">
        <ele>277</ele>
        <time>2020-06-30T11:20:03Z</time>
      </trkpt>
      <trkpt lat="48.17293" lon="-0.2168">
        <ele>277</ele>
        <time>2020-06-30T11:20:29Z</time>
      </trkpt>
      <trkpt lat="48.17288" lon="-0.21698">
        <ele>276.04</ele>
        <time>2020-06-30T11:20:42Z</time>
      </trkpt>
      <trkpt lat="48.1728" lon="-0.21721">
        <ele>274.59</ele>
        <time>2020-06-30T11:20:58Z</time>
      </trkpt>
      <trkpt lat="48.17276" lon="-0.21738">
        <ele>274.11</ele>
        <time>2020-06-30T11:21:08Z</time>
      </trkpt>
      <trkpt lat="48.1727" lon="-0.21754">
        <ele>274.11</ele>
        <time>2020-06-30T11:21:19Z</time>
      </trkpt>
      <trkpt lat="48.17263" lon="-0.21773">
        <ele>273.63</ele>
        <time>2020-06-30T11:21:32Z</time>
      </trkpt>
      <trkpt lat="48.17257" lon="-0.21786">
        <ele>273.15</ele>
        <time>2020-06-30T11:21:41Z</time>
      </trkpt>
      <trkpt lat="48.17253" lon="-0.218">
        <ele>272.67</ele>
        <time>2020-06-30T11:21:50Z</time>
      </trkpt>
      <trkpt lat="48.17246" lon="-0.21825">
        <ele>272.67</ele>
        <time>2020-06-30T11:22:07Z</time>
      </trkpt>
      <trkpt lat="48.17244" lon="-0.21841">
        <ele>272.67</ele>
        <time>2020-06-30T11:22:17Z</time>
      </trkpt>
      <trkpt lat="48.17243" lon="-0.2186">
        <ele>274.59</ele>
        <time>2020-06-30T11:22:29Z</time>
      </trkpt>
      <trkpt lat="48.17244" lon="-0.21875">
        <ele>274.59</ele>
        <time>2020-06-30T11:22:39Z</time>
      </trkpt>
      <trkpt lat="48.17245" lon="-0.21897">
        <ele>275.56</ele>
        <time>2020-06-30T11:22:53Z</time>
      </trkpt>
      <trkpt lat="48.17239" lon="-0.21929">
        <ele>276.04</ele>
        <time>2020-06-30T11:23:20Z</time>
      </trkpt>
      <trkpt lat="48.17238" lon="-0.21947">
        <ele>276.04</ele>
        <time>2020-06-30T11:23:31Z</time>
      </trkpt>
      <trkpt lat="48.17236" lon="-0.21962">
        <ele>275.56</ele>
        <time>2020-06-30T11:23:39Z</time>
      </trkpt>
      <trkpt lat="48.17233" lon="-0.21978">
        <ele>275.56</ele>
        <time>2020-06-30T11:23:48Z</time>
      </trkpt>
      <trkpt lat="48.17232" lon="-0.21993">
        <ele>275.56</ele>
        <time>2020-06-30T11:23:56Z</time>
      </trkpt>
      <trkpt lat="48.1723" lon="-0.22006">
        <ele>275.56</ele>
        <time>2020-06-30T11:24:04Z</time>
      </trkpt>
      <trkpt lat="48.17229" lon="-0.22022">
        <ele>274.59</ele>
        <time>2020-06-30T11:24:13Z</time>
      </trkpt>
      <trkpt lat="48.1723" lon="-0.22038">
        <ele>274.59</ele>
        <time>2020-06-30T11:24:22Z</time>
      </trkpt>
      <trkpt lat="48.17231" lon="-0.22059">
        <ele>273.15</ele>
        <time>2020-06-30T11:24:37Z</time>
      </trkpt>
      <trkpt lat="48.17231" lon="-0.22076">
        <ele>272.19</ele>
        <time>2020-06-30T11:24:47Z</time>
      </trkpt>
      <trkpt lat="48.17234" lon="-0.22115">
        <ele>269.79</ele>
        <time>2020-06-30T11:25:12Z</time>
      </trkpt>
      <trkpt lat="48.17227" lon="-0.22164">
        <ele>265.46</ele>
        <time>2020-06-30T11:25:47Z</time>
      </trkpt>
      <trkpt lat="48.17225" lon="-0.22187">
        <ele>263.06</ele>
        <time>2020-06-30T11:26:01Z</time>
      </trkpt>
      <trkpt lat="48.17222" lon="-0.22218">
        <ele>259.69</ele>
        <time>2020-06-30T11:26:21Z</time>
      </trkpt>
      <trkpt lat="48.17219" lon="-0.22273">
        <ele>254.41</ele>
        <time>2020-06-30T11:27:02Z</time>
      </trkpt>
      <trkpt lat="48.17208" lon="-0.22308">
        <ele>252.96</ele>
        <time>2020-06-30T11:27:24Z</time>
      </trkpt>
      <trkpt lat="48.17182" lon="-0.22321">
        <ele>250.56</ele>
        <time>2020-06-30T11:28:18Z</time>
      </trkpt>
      <trkpt lat="48.17151" lon="-0.22324">
        <ele>249.12</ele>
        <time>2020-06-30T11:28:48Z</time>
      </trkpt>
      <trkpt lat="48.17133" lon="-0.22336">
        <ele>247.68</ele>
        <time>2020-06-30T11:29:08Z</time>
      </trkpt>
      <trkpt lat="48.17098" lon="-0.22371">
        <ele>246.72</ele>
        <time>2020-06-30T11:29:43Z</time>
      </trkpt>
      <trkpt lat="48.17088" lon="-0.22386">
        <ele>246.72</ele>
        <time>2020-06-30T11:29:52Z</time>
      </trkpt>
      <trkpt lat="48.17076" lon="-0.22406">
        <ele>246.23</ele>
        <time>2020-06-30T11:30:05Z</time>
      </trkpt>
      <trkpt lat="48.17067" lon="-0.22428">
        <ele>245.75</ele>
        <time>2020-06-30T11:30:21Z</time>
      </trkpt>
      <trkpt lat="48.17038" lon="-0.22514">
        <ele>246.23</ele>
        <time>2020-06-30T11:31:53Z</time>
      </trkpt>
      <trkpt lat="48.17022" lon="-0.22607">
        <ele>244.31</ele>
        <time>2020-06-30T11:32:53Z</time>
      </trkpt>
      <trkpt lat="48.17018" lon="-0.22652">
        <ele>245.75</ele>
        <time>2020-06-30T11:33:17Z</time>
      </trkpt>
      <trkpt lat="48.16995" lon="-0.22717">
        <ele>245.75</ele>
        <time>2020-06-30T11:33:54Z</time>
      </trkpt>
      <trkpt lat="48.1698" lon="-0.22831">
        <ele>246.72</ele>
        <time>2020-06-30T11:35:06Z</time>
      </trkpt>
      <trkpt lat="48.16971" lon="-0.22862">
        <ele>246.72</ele>
        <time>2020-06-30T11:35:24Z</time>
      </trkpt>
      <trkpt lat="48.16962" lon="-0.22886">
        <ele>247.2</ele>
        <time>2020-06-30T11:35:38Z</time>
      </trkpt>
      <trkpt lat="48.16958" lon="-0.22938">
        <ele>248.64</ele>
        <time>2020-06-30T11:36:09Z</time>
      </trkpt>
      <trkpt lat="48.16954" lon="-0.2296">
        <ele>249.6</ele>
        <time>2020-06-30T11:36:24Z</time>
      </trkpt>
      <trkpt lat="48.16951" lon="-0.22978">
        <ele>249.6</ele>
        <time>2020-06-30T11:36:34Z</time>
      </trkpt>
      <trkpt lat="48.16944" lon="-0.22999">
        <ele>250.08</ele>
        <time>2020-06-30T11:36:47Z</time>
      </trkpt>
      <trkpt lat="48.16936" lon="-0.23019">
        <ele>250.08</ele>
        <time>2020-06-30T11:37:01Z</time>
      </trkpt>
      <trkpt lat="48.16924" lon="-0.23052">
        <ele>249.6</ele>
        <time>2020-06-30T11:37:23Z</time>
      </trkpt>
      <trkpt lat="48.16918" lon="-0.23071">
        <ele>249.6</ele>
        <time>2020-06-30T11:37:34Z</time>
      </trkpt>
      <trkpt lat="48.16905" lon="-0.23095">
        <ele>250.08</ele>
        <time>2020-06-30T11:37:51Z</time>
      </trkpt>
      <trkpt lat="48.16888" lon="-0.23127">
        <ele>250.56</ele>
        <time>2020-06-30T11:38:12Z</time>
      </trkpt>
      <trkpt lat="48.16876" lon="-0.23159">
        <ele>252.48</ele>
        <time>2020-06-30T11:38:35Z</time>
      </trkpt>
      <trkpt lat="48.16864" lon="-0.23182">
        <ele>253.93</ele>
        <time>2020-06-30T11:38:52Z</time>
      </trkpt>
      <trkpt lat="48.16818" lon="-0.23192">
        <ele>255.85</ele>
        <time>2020-06-30T11:40:59Z</time>
      </trkpt>
      <trkpt lat="48.16789" lon="-0.23198">
        <ele>256.33</ele>
        <time>2020-06-30T11:41:32Z</time>
      </trkpt>
      <trkpt lat="48.16759" lon="-0.23201">
        <ele>257.29</ele>
        <time>2020-06-30T11:41:58Z</time>
      </trkpt>
      <trkpt lat="48.16724" lon="-0.23199">
        <ele>258.25</ele>
        <time>2020-06-30T11:42:34Z</time>
      </trkpt>
      <trkpt lat="48.16634" lon="-0.2321">
        <ele>262.58</ele>
        <time>2020-06-30T11:44:39Z</time>
      </trkpt>
      <trkpt lat="48.16535" lon="-0.23214">
        <ele>282.28</ele>
        <time>2020-06-30T11:46:43Z</time>
      </trkpt>
      <trkpt lat="48.16489" lon="-0.23205">
        <ele>287.09</ele>
        <time>2020-06-30T11:48:18Z</time>
      </trkpt>
      <trkpt lat="48.16477" lon="-0.23182">
        <ele>285.17</ele>
        <time>2020-06-30T11:48:42Z</time>
      </trkpt>
      <trkpt lat="48.16463" lon="-0.23155">
        <ele>283.25</ele>
        <time>2020-06-30T11:49:07Z</time>
      </trkpt>
      <trkpt lat="48.16449" lon="-0.2313">
        <ele>281.8</ele>
        <time>2020-06-30T11:49:26Z</time>
      </trkpt>
      <trkpt lat="48.16421" lon="-0.23123">
        <ele>280.84</ele>
        <time>2020-06-30T11:50:07Z</time>
      </trkpt>
      <trkpt lat="48.16405" lon="-0.23136">
        <ele>280.84</ele>
        <time>2020-06-30T11:51:03Z</time>
      </trkpt>
      <trkpt lat="48.16393" lon="-0.23141">
        <ele>280.84</ele>
        <time>2020-06-30T11:51:16Z</time>
      </trkpt>
      <trkpt lat="48.16383" lon="-0.23148">
        <ele>280.84</ele>
        <time>2020-06-30T11:51:26Z</time>
      </trkpt>
      <trkpt lat="48.16369" lon="-0.23158">
        <ele>280.36</ele>
        <time>2020-06-30T11:51:40Z</time>
      </trkpt>
      <trkpt lat="48.16358" lon="-0.23165">
        <ele>280.36</ele>
        <time>2020-06-30T11:51:49Z</time>
      </trkpt>
      <trkpt lat="48.16345" lon="-0.23174">
        <ele>279.88</ele>
        <time>2020-06-30T11:52:02Z</time>
      </trkpt>
      <trkpt lat="48.16333" lon="-0.23181">
        <ele>279.88</ele>
        <time>2020-06-30T11:52:12Z</time>
      </trkpt>
      <trkpt lat="48.16323" lon="-0.23188">
        <ele>278.92</ele>
        <time>2020-06-30T11:52:22Z</time>
      </trkpt>
      <trkpt lat="48.1631" lon="-0.23195">
        <ele>278.92</ele>
        <time>2020-06-30T11:52:35Z</time>
      </trkpt>
      <trkpt lat="48.16296" lon="-0.23204">
        <ele>277.96</ele>
        <time>2020-06-30T11:52:47Z</time>
      </trkpt>
      <trkpt lat="48.16285" lon="-0.23211">
        <ele>277.48</ele>
        <time>2020-06-30T11:52:56Z</time>
      </trkpt>
      <trkpt lat="48.16265" lon="-0.23218">
        <ele>275.56</ele>
        <time>2020-06-30T11:53:50Z</time>
      </trkpt>
      <trkpt lat="48.16253" lon="-0.23224">
        <ele>274.11</ele>
        <time>2020-06-30T11:54:06Z</time>
      </trkpt>
      <trkpt lat="48.16239" lon="-0.23233">
        <ele>273.63</ele>
        <time>2020-06-30T11:54:22Z</time>
      </trkpt>
      <trkpt lat="48.16217" lon="-0.23246">
        <ele>273.15</ele>
        <time>2020-06-30T11:54:41Z</time>
      </trkpt>
      <trkpt lat="48.16204" lon="-0.23257">
        <ele>271.23</ele>
        <time>2020-06-30T11:54:56Z</time>
      </trkpt>
      <trkpt lat="48.16194" lon="-0.23267">
        <ele>270.27</ele>
        <time>2020-06-30T11:55:07Z</time>
      </trkpt>
      <trkpt lat="48.16185" lon="-0.23274">
        <ele>269.31</ele>
        <time>2020-06-30T11:55:17Z</time>
      </trkpt>
      <trkpt lat="48.16174" lon="-0.23284">
        <ele>268.35</ele>
        <time>2020-06-30T11:55:31Z</time>
      </trkpt>
      <trkpt lat="48.16157" lon="-0.233">
        <ele>266.9</ele>
        <time>2020-06-30T11:55:51Z</time>
      </trkpt>
      <trkpt lat="48.16145" lon="-0.23308">
        <ele>265.94</ele>
        <time>2020-06-30T11:56:03Z</time>
      </trkpt>
      <trkpt lat="48.16137" lon="-0.23317">
        <ele>265.46</ele>
        <time>2020-06-30T11:56:13Z</time>
      </trkpt>
      <trkpt lat="48.16121" lon="-0.2333">
        <ele>264.98</ele>
        <time>2020-06-30T11:56:31Z</time>
      </trkpt>
      <trkpt lat="48.16108" lon="-0.2334">
        <ele>264.5</ele>
        <time>2020-06-30T11:56:42Z</time>
      </trkpt>
      <trkpt lat="48.16098" lon="-0.23345">
        <ele>264.5</ele>
        <time>2020-06-30T11:56:50Z</time>
      </trkpt>
      <trkpt lat="48.16089" lon="-0.23352">
        <ele>264.5</ele>
        <time>2020-06-30T11:56:59Z</time>
      </trkpt>
      <trkpt lat="48.16078" lon="-0.23363">
        <ele>264.02</ele>
        <time>2020-06-30T11:57:12Z</time>
      </trkpt>
      <trkpt lat="48.16068" lon="-0.23374">
        <ele>263.54</ele>
        <time>2020-06-30T11:57:23Z</time>
      </trkpt>
      <trkpt lat="48.16061" lon="-0.23383">
        <ele>263.06</ele>
        <time>2020-06-30T11:57:32Z</time>
      </trkpt>
      <trkpt lat="48.16055" lon="-0.23393">
        <ele>263.06</ele>
        <time>2020-06-30T11:57:40Z</time>
      </trkpt>
      <trkpt lat="48.16046" lon="-0.23402">
        <ele>262.58</ele>
        <time>2020-06-30T11:57:51Z</time>
      </trkpt>
      <trkpt lat="48.16037" lon="-0.23408">
        <ele>262.1</ele>
        <time>2020-06-30T11:58:25Z</time>
      </trkpt>
      <trkpt lat="48.16028" lon="-0.23416">
        <ele>261.14</ele>
        <time>2020-06-30T11:58:36Z</time>
      </trkpt>
      <trkpt lat="48.1602" lon="-0.23426">
        <ele>260.65</ele>
        <time>2020-06-30T11:58:47Z</time>
      </trkpt>
      <trkpt lat="48.16011" lon="-0.23435">
        <ele>260.17</ele>
        <time>2020-06-30T11:59:40Z</time>
      </trkpt>
      <trkpt lat="48.16002" lon="-0.23443">
        <ele>258.25</ele>
        <time>2020-06-30T11:59:54Z</time>
      </trkpt>
      <trkpt lat="48.15991" lon="-0.23447">
        <ele>257.77</ele>
        <time>2020-06-30T12:00:07Z</time>
      </trkpt>
      <trkpt lat="48.15982" lon="-0.23451">
        <ele>256.33</ele>
        <time>2020-06-30T12:00:17Z</time>
      </trkpt>
      <trkpt lat="48.15973" lon="-0.23455">
        <ele>254.89</ele>
        <time>2020-06-30T12:00:28Z</time>
      </trkpt>
      <trkpt lat="48.15961" lon="-0.2346">
        <ele>253.93</ele>
        <time>2020-06-30T12:00:38Z</time>
      </trkpt>
      <trkpt lat="48.1595" lon="-0.23461">
        <ele>252.48</ele>
        <time>2020-06-30T12:00:49Z</time>
      </trkpt>
      <trkpt lat="48.1594" lon="-0.23459">
        <ele>251.52</ele>
        <time>2020-06-30T12:01:00Z</time>
      </trkpt>
      <trkpt lat="48.15928" lon="-0.23459">
        <ele>250.08</ele>
        <time>2020-06-30T12:01:13Z</time>
      </trkpt>
      <trkpt lat="48.15917" lon="-0.23459">
        <ele>248.64</ele>
        <time>2020-06-30T12:01:24Z</time>
      </trkpt>
      <trkpt lat="48.15907" lon="-0.23461">
        <ele>248.16</ele>
        <time>2020-06-30T12:01:34Z</time>
      </trkpt>
      <trkpt lat="48.15897" lon="-0.23463">
        <ele>247.68</ele>
        <time>2020-06-30T12:01:44Z</time>
      </trkpt>
      <trkpt lat="48.15887" lon="-0.23465">
        <ele>246.72</ele>
        <time>2020-06-30T12:01:54Z</time>
      </trkpt>
      <trkpt lat="48.15877" lon="-0.23471">
        <ele>245.75</ele>
        <time>2020-06-30T12:02:18Z</time>
      </trkpt>
      <trkpt lat="48.15866" lon="-0.23465">
        <ele>243.83</ele>
        <time>2020-06-30T12:02:46Z</time>
      </trkpt>
      <trkpt lat="48.15861" lon="-0.23452">
        <ele>243.83</ele>
        <time>2020-06-30T12:02:56Z</time>
      </trkpt>
      <trkpt lat="48.15855" lon="-0.2344">
        <ele>242.87</ele>
        <time>2020-06-30T12:03:06Z</time>
      </trkpt>
      <trkpt lat="48.1585" lon="-0.23429">
        <ele>241.91</ele>
        <time>2020-06-30T12:03:14Z</time>
      </trkpt>
      <trkpt lat="48.15844" lon="-0.23418">
        <ele>241.91</ele>
        <time>2020-06-30T12:03:21Z</time>
      </trkpt>
      <trkpt lat="48.15837" lon="-0.23409">
        <ele>241.43</ele>
        <time>2020-06-30T12:03:29Z</time>
      </trkpt>
      <trkpt lat="48.15831" lon="-0.23398">
        <ele>240.95</ele>
        <time>2020-06-30T12:03:38Z</time>
      </trkpt>
      <trkpt lat="48.15823" lon="-0.23391">
        <ele>239.51</ele>
        <time>2020-06-30T12:03:46Z</time>
      </trkpt>
      <trkpt lat="48.15816" lon="-0.23382">
        <ele>239.02</ele>
        <time>2020-06-30T12:03:55Z</time>
      </trkpt>
      <trkpt lat="48.15808" lon="-0.23374">
        <ele>238.06</ele>
        <time>2020-06-30T12:04:03Z</time>
      </trkpt>
      <trkpt lat="48.158" lon="-0.23368">
        <ele>237.1</ele>
        <time>2020-06-30T12:04:10Z</time>
      </trkpt>
      <trkpt lat="48.15791" lon="-0.23359">
        <ele>236.62</ele>
        <time>2020-06-30T12:04:20Z</time>
      </trkpt>
      <trkpt lat="48.1578" lon="-0.2335">
        <ele>235.66</ele>
        <time>2020-06-30T12:04:38Z</time>
      </trkpt>
      <trkpt lat="48.15772" lon="-0.23341">
        <ele>235.18</ele>
        <time>2020-06-30T12:04:47Z</time>
      </trkpt>
      <trkpt lat="48.15764" lon="-0.23332">
        <ele>234.7</ele>
        <time>2020-06-30T12:04:56Z</time>
      </trkpt>
      <trkpt lat="48.15757" lon="-0.23323">
        <ele>233.26</ele>
        <time>2020-06-30T12:05:05Z</time>
      </trkpt>
      <trkpt lat="48.15749" lon="-0.23314">
        <ele>232.3</ele>
        <time>2020-06-30T12:05:14Z</time>
      </trkpt>
      <trkpt lat="48.15741" lon="-0.23305">
        <ele>231.81</ele>
        <time>2020-06-30T12:05:23Z</time>
      </trkpt>
      <trkpt lat="48.15734" lon="-0.23296">
        <ele>231.33</ele>
        <time>2020-06-30T12:05:32Z</time>
      </trkpt>
      <trkpt lat="48.15726" lon="-0.23286">
        <ele>230.37</ele>
        <time>2020-06-30T12:05:41Z</time>
      </trkpt>
      <trkpt lat="48.15718" lon="-0.23276">
        <ele>229.41</ele>
        <time>2020-06-30T12:05:50Z</time>
      </trkpt>
      <trkpt lat="48.15711" lon="-0.23266">
        <ele>227.97</ele>
        <time>2020-06-30T12:05:59Z</time>
      </trkpt>
      <trkpt lat="48.15705" lon="-0.23254">
        <ele>226.53</ele>
        <time>2020-06-30T12:06:08Z</time>
      </trkpt>
      <trkpt lat="48.15699" lon="-0.23243">
        <ele>225.09</ele>
        <time>2020-06-30T12:06:17Z</time>
      </trkpt>
      <trkpt lat="48.15693" lon="-0.23233">
        <ele>224.61</ele>
        <time>2020-06-30T12:06:25Z</time>
      </trkpt>
      <trkpt lat="48.15687" lon="-0.23221">
        <ele>223.16</ele>
        <time>2020-06-30T12:06:34Z</time>
      </trkpt>
      <trkpt lat="48.15681" lon="-0.23209">
        <ele>221.72</ele>
        <time>2020-06-30T12:06:43Z</time>
      </trkpt>
      <trkpt lat="48.15676" lon="-0.23197">
        <ele>220.76</ele>
        <time>2020-06-30T12:06:52Z</time>
      </trkpt>
      <trkpt lat="48.15671" lon="-0.23184">
        <ele>219.32</ele>
        <time>2020-06-30T12:07:01Z</time>
      </trkpt>
      <trkpt lat="48.15667" lon="-0.23171">
        <ele>218.36</ele>
        <time>2020-06-30T12:07:09Z</time>
      </trkpt>
      <trkpt lat="48.15664" lon="-0.23158">
        <ele>217.88</ele>
        <time>2020-06-30T12:07:17Z</time>
      </trkpt>
      <trkpt lat="48.15662" lon="-0.23146">
        <ele>216.91</ele>
        <time>2020-06-30T12:07:25Z</time>
      </trkpt>
      <trkpt lat="48.1566" lon="-0.23133">
        <ele>216.43</ele>
        <time>2020-06-30T12:07:33Z</time>
      </trkpt>
      <trkpt lat="48.15656" lon="-0.23118">
        <ele>215.95</ele>
        <time>2020-06-30T12:07:42Z</time>
      </trkpt>
      <trkpt lat="48.15651" lon="-0.23106">
        <ele>214.51</ele>
        <time>2020-06-30T12:07:51Z</time>
      </trkpt>
      <trkpt lat="48.15642" lon="-0.23095">
        <ele>214.03</ele>
        <time>2020-06-30T12:08:00Z</time>
      </trkpt>
      <trkpt lat="48.15635" lon="-0.23087">
        <ele>212.59</ele>
        <time>2020-06-30T12:08:08Z</time>
      </trkpt>
      <trkpt lat="48.15629" lon="-0.23077">
        <ele>211.63</ele>
        <time>2020-06-30T12:08:16Z</time>
      </trkpt>
      <trkpt lat="48.15623" lon="-0.23065">
        <ele>210.67</ele>
        <time>2020-06-30T12:08:25Z</time>
      </trkpt>
      <trkpt lat="48.15618" lon="-0.23052">
        <ele>209.22</ele>
        <time>2020-06-30T12:08:33Z</time>
      </trkpt>
      <trkpt lat="48.15616" lon="-0.23038">
        <ele>209.22</ele>
        <time>2020-06-30T12:08:41Z</time>
      </trkpt>
      <trkpt lat="48.15621" lon="-0.23027">
        <ele>208.74</ele>
        <time>2020-06-30T12:08:48Z</time>
      </trkpt>
      <trkpt lat="48.15628" lon="-0.23014">
        <ele>208.74</ele>
        <time>2020-06-30T12:08:57Z</time>
      </trkpt>
      <trkpt lat="48.15637" lon="-0.23002">
        <ele>208.26</ele>
        <time>2020-06-30T12:09:07Z</time>
      </trkpt>
      <trkpt lat="48.15646" lon="-0.22988">
        <ele>207.3</ele>
        <time>2020-06-30T12:09:17Z</time>
      </trkpt>
      <trkpt lat="48.15655" lon="-0.22977">
        <ele>206.82</ele>
        <time>2020-06-30T12:09:27Z</time>
      </trkpt>
      <trkpt lat="48.15664" lon="-0.22967">
        <ele>206.82</ele>
        <time>2020-06-30T12:09:36Z</time>
      </trkpt>
      <trkpt lat="48.15672" lon="-0.22955">
        <ele>206.34</ele>
        <time>2020-06-30T12:09:45Z</time>
      </trkpt>
      <trkpt lat="48.15681" lon="-0.22948">
        <ele>205.38</ele>
        <time>2020-06-30T12:09:53Z</time>
      </trkpt>
      <trkpt lat="48.1569" lon="-0.2294">
        <ele>204.42</ele>
        <time>2020-06-30T12:10:01Z</time>
      </trkpt>
      <trkpt lat="48.15699" lon="-0.22936">
        <ele>204.42</ele>
        <time>2020-06-30T12:10:09Z</time>
      </trkpt>
      <trkpt lat="48.15709" lon="-0.22933">
        <ele>203.94</ele>
        <time>2020-06-30T12:10:18Z</time>
      </trkpt>
      <trkpt lat="48.15724" lon="-0.22924">
        <ele>203.94</ele>
        <time>2020-06-30T12:10:32Z</time>
      </trkpt>
      <trkpt lat="48.15738" lon="-0.22916">
        <ele>203.94</ele>
        <time>2020-06-30T12:10:41Z</time>
      </trkpt>
      <trkpt lat="48.15749" lon="-0.2291">
        <ele>205.38</ele>
        <time>2020-06-30T12:10:52Z</time>
      </trkpt>
      <trkpt lat="48.15758" lon="-0.22904">
        <ele>205.86</ele>
        <time>2020-06-30T12:11:00Z</time>
      </trkpt>
      <trkpt lat="48.15764" lon="-0.22894">
        <ele>206.82</ele>
        <time>2020-06-30T12:11:08Z</time>
      </trkpt>
      <trkpt lat="48.15761" lon="-0.22881">
        <ele>207.78</ele>
        <time>2020-06-30T12:11:17Z</time>
      </trkpt>
      <trkpt lat="48.15751" lon="-0.22875">
        <ele>208.26</ele>
        <time>2020-06-30T12:11:26Z</time>
      </trkpt>
      <trkpt lat="48.15742" lon="-0.22871">
        <ele>209.22</ele>
        <time>2020-06-30T12:11:35Z</time>
      </trkpt>
      <trkpt lat="48.15733" lon="-0.22859">
        <ele>210.19</ele>
        <time>2020-06-30T12:11:46Z</time>
      </trkpt>
      <trkpt lat="48.15732" lon="-0.22841">
        <ele>211.63</ele>
        <time>2020-06-30T12:11:58Z</time>
      </trkpt>
      <trkpt lat="48.1573" lon="-0.22824">
        <ele>212.11</ele>
        <time>2020-06-30T12:12:07Z</time>
      </trkpt>
      <trkpt lat="48.15732" lon="-0.22806">
        <ele>212.59</ele>
        <time>2020-06-30T12:12:17Z</time>
      </trkpt>
      <trkpt lat="48.15734" lon="-0.2279">
        <ele>213.55</ele>
        <time>2020-06-30T12:12:26Z</time>
      </trkpt>
      <trkpt lat="48.15737" lon="-0.22763">
        <ele>214.03</ele>
        <time>2020-06-30T12:12:46Z</time>
      </trkpt>
      <trkpt lat="48.15736" lon="-0.22749">
        <ele>214.51</ele>
        <time>2020-06-30T12:13:03Z</time>
      </trkpt>
      <trkpt lat="48.15735" lon="-0.22736">
        <ele>213.55</ele>
        <time>2020-06-30T12:13:14Z</time>
      </trkpt>
      <trkpt lat="48.15733" lon="-0.22715">
        <ele>211.63</ele>
        <time>2020-06-30T12:13:36Z</time>
      </trkpt>
      <trkpt lat="48.15731" lon="-0.22699">
        <ele>211.15</ele>
        <time>2020-06-30T12:13:45Z</time>
      </trkpt>
      <trkpt lat="48.15729" lon="-0.22683">
        <ele>211.15</ele>
        <time>2020-06-30T12:13:54Z</time>
      </trkpt>
      <trkpt lat="48.15728" lon="-0.22668">
        <ele>209.7</ele>
        <time>2020-06-30T12:14:03Z</time>
      </trkpt>
      <trkpt lat="48.15727" lon="-0.22654">
        <ele>208.74</ele>
        <time>2020-06-30T12:14:11Z</time>
      </trkpt>
      <trkpt lat="48.15726" lon="-0.22639">
        <ele>207.78</ele>
        <time>2020-06-30T12:14:20Z</time>
      </trkpt>
      <trkpt lat="48.15724" lon="-0.22624">
        <ele>207.3</ele>
        <time>2020-06-30T12:14:29Z</time>
      </trkpt>
      <trkpt lat="48.15722" lon="-0.22612">
        <ele>206.82</ele>
        <time>2020-06-30T12:14:36Z</time>
      </trkpt>
      <trkpt lat="48.15721" lon="-0.22596">
        <ele>205.86</ele>
        <time>2020-06-30T12:14:45Z</time>
      </trkpt>
      <trkpt lat="48.15721" lon="-0.22582">
        <ele>204.42</ele>
        <time>2020-06-30T12:14:54Z</time>
      </trkpt>
      <trkpt lat="48.1572" lon="-0.22567">
        <ele>203.94</ele>
        <time>2020-06-30T12:15:03Z</time>
      </trkpt>
      <trkpt lat="48.1572" lon="-0.2255">
        <ele>203.46</ele>
        <time>2020-06-30T12:15:12Z</time>
      </trkpt>
      <trkpt lat="48.15721" lon="-0.22534">
        <ele>202.49</ele>
        <time>2020-06-30T12:15:21Z</time>
      </trkpt>
      <trkpt lat="48.15723" lon="-0.22521">
        <ele>202.01</ele>
        <time>2020-06-30T12:15:29Z</time>
      </trkpt>
      <trkpt lat="48.15725" lon="-0.22505">
        <ele>201.53</ele>
        <time>2020-06-30T12:15:37Z</time>
      </trkpt>
      <trkpt lat="48.15727" lon="-0.22489">
        <ele>200.57</ele>
        <time>2020-06-30T12:15:46Z</time>
      </trkpt>
      <trkpt lat="48.15728" lon="-0.22476">
        <ele>200.09</ele>
        <time>2020-06-30T12:15:54Z</time>
      </trkpt>
      <trkpt lat="48.1573" lon="-0.22461">
        <ele>199.61</ele>
        <time>2020-06-30T12:16:03Z</time>
      </trkpt>
      <trkpt lat="48.15731" lon="-0.22445">
        <ele>199.13</ele>
        <time>2020-06-30T12:16:12Z</time>
      </trkpt>
      <trkpt lat="48.15733" lon="-0.22431">
        <ele>198.17</ele>
        <time>2020-06-30T12:16:20Z</time>
      </trkpt>
      <trkpt lat="48.15735" lon="-0.22418">
        <ele>197.69</ele>
        <time>2020-06-30T12:16:28Z</time>
      </trkpt>
      <trkpt lat="48.15737" lon="-0.22403">
        <ele>197.69</ele>
        <time>2020-06-30T12:16:37Z</time>
      </trkpt>
      <trkpt lat="48.15739" lon="-0.2239">
        <ele>197.21</ele>
        <time>2020-06-30T12:16:45Z</time>
      </trkpt>
      <trkpt lat="48.15741" lon="-0.22375">
        <ele>196.25</ele>
        <time>2020-06-30T12:16:54Z</time>
      </trkpt>
      <trkpt lat="48.15744" lon="-0.2236">
        <ele>196.25</ele>
        <time>2020-06-30T12:17:02Z</time>
      </trkpt>
      <trkpt lat="48.15745" lon="-0.22346">
        <ele>195.77</ele>
        <time>2020-06-30T12:17:10Z</time>
      </trkpt>
      <trkpt lat="48.15746" lon="-0.22329">
        <ele>195.28</ele>
        <time>2020-06-30T12:17:19Z</time>
      </trkpt>
      <trkpt lat="48.1575" lon="-0.22315">
        <ele>194.8</ele>
        <time>2020-06-30T12:17:27Z</time>
      </trkpt>
      <trkpt lat="48.15752" lon="-0.22301">
        <ele>194.32</ele>
        <time>2020-06-30T12:17:35Z</time>
      </trkpt>
      <trkpt lat="48.15753" lon="-0.22288">
        <ele>193.84</ele>
        <time>2020-06-30T12:17:43Z</time>
      </trkpt>
      <trkpt lat="48.15755" lon="-0.22274">
        <ele>193.36</ele>
        <time>2020-06-30T12:17:51Z</time>
      </trkpt>
      <trkpt lat="48.15759" lon="-0.2226">
        <ele>192.88</ele>
        <time>2020-06-30T12:17:59Z</time>
      </trkpt>
      <trkpt lat="48.15763" lon="-0.22247">
        <ele>192.4</ele>
        <time>2020-06-30T12:18:07Z</time>
      </trkpt>
      <trkpt lat="48.15766" lon="-0.22234">
        <ele>192.4</ele>
        <time>2020-06-30T12:18:15Z</time>
      </trkpt>
      <trkpt lat="48.15768" lon="-0.22218">
        <ele>191.44</ele>
        <time>2020-06-30T12:18:23Z</time>
      </trkpt>
      <trkpt lat="48.1577" lon="-0.22203">
        <ele>190.96</ele>
        <time>2020-06-30T12:18:32Z</time>
      </trkpt>
      <trkpt lat="48.15769" lon="-0.22187">
        <ele>190.48</ele>
        <time>2020-06-30T12:18:39Z</time>
      </trkpt>
      <trkpt lat="48.15769" lon="-0.22171">
        <ele>190.48</ele>
        <time>2020-06-30T12:18:48Z</time>
      </trkpt>
      <trkpt lat="48.15768" lon="-0.22154">
        <ele>189.52</ele>
        <time>2020-06-30T12:18:57Z</time>
      </trkpt>
      <trkpt lat="48.15768" lon="-0.22138">
        <ele>189.52</ele>
        <time>2020-06-30T12:19:04Z</time>
      </trkpt>
      <trkpt lat="48.15769" lon="-0.22122">
        <ele>189.04</ele>
        <time>2020-06-30T12:19:13Z</time>
      </trkpt>
      <trkpt lat="48.15769" lon="-0.22109">
        <ele>188.56</ele>
        <time>2020-06-30T12:19:21Z</time>
      </trkpt>
      <trkpt lat="48.15769" lon="-0.22095">
        <ele>188.08</ele>
        <time>2020-06-30T12:19:28Z</time>
      </trkpt>
      <trkpt lat="48.15769" lon="-0.22082">
        <ele>186.63</ele>
        <time>2020-06-30T12:19:36Z</time>
      </trkpt>
      <trkpt lat="48.15768" lon="-0.22068">
        <ele>186.63</ele>
        <time>2020-06-30T12:19:43Z</time>
      </trkpt>
      <trkpt lat="48.15766" lon="-0.22054">
        <ele>185.67</ele>
        <time>2020-06-30T12:19:51Z</time>
      </trkpt>
      <trkpt lat="48.15766" lon="-0.2204">
        <ele>185.19</ele>
        <time>2020-06-30T12:20:00Z</time>
      </trkpt>
      <trkpt lat="48.15764" lon="-0.22027">
        <ele>184.71</ele>
        <time>2020-06-30T12:20:12Z</time>
      </trkpt>
      <trkpt lat="48.15762" lon="-0.22013">
        <ele>183.75</ele>
        <time>2020-06-30T12:20:19Z</time>
      </trkpt>
      <trkpt lat="48.15757" lon="-0.22">
        <ele>183.27</ele>
        <time>2020-06-30T12:20:28Z</time>
      </trkpt>
      <trkpt lat="48.15751" lon="-0.21987">
        <ele>182.31</ele>
        <time>2020-06-30T12:20:35Z</time>
      </trkpt>
      <trkpt lat="48.15746" lon="-0.21974">
        <ele>181.35</ele>
        <time>2020-06-30T12:20:44Z</time>
      </trkpt>
      <trkpt lat="48.1574" lon="-0.21964">
        <ele>180.38</ele>
        <time>2020-06-30T12:20:52Z</time>
      </trkpt>
      <trkpt lat="48.15732" lon="-0.21953">
        <ele>179.42</ele>
        <time>2020-06-30T12:21:00Z</time>
      </trkpt>
      <trkpt lat="48.15723" lon="-0.21944">
        <ele>179.42</ele>
        <time>2020-06-30T12:21:09Z</time>
      </trkpt>
      <trkpt lat="48.15715" lon="-0.21938">
        <ele>178.46</ele>
        <time>2020-06-30T12:21:17Z</time>
      </trkpt>
      <trkpt lat="48.15707" lon="-0.21932">
        <ele>177.98</ele>
        <time>2020-06-30T12:21:24Z</time>
      </trkpt>
      <trkpt lat="48.15699" lon="-0.21927">
        <ele>177.02</ele>
        <time>2020-06-30T12:21:32Z</time>
      </trkpt>
      <trkpt lat="48.1569" lon="-0.21921">
        <ele>176.54</ele>
        <time>2020-06-30T12:21:41Z</time>
      </trkpt>
      <trkpt lat="48.15682" lon="-0.21916">
        <ele>176.06</ele>
        <time>2020-06-30T12:21:49Z</time>
      </trkpt>
      <trkpt lat="48.15673" lon="-0.21911">
        <ele>175.1</ele>
        <time>2020-06-30T12:21:57Z</time>
      </trkpt>
      <trkpt lat="48.15664" lon="-0.21905">
        <ele>174.62</ele>
        <time>2020-06-30T12:22:05Z</time>
      </trkpt>
      <trkpt lat="48.15655" lon="-0.219">
        <ele>173.66</ele>
        <time>2020-06-30T12:22:13Z</time>
      </trkpt>
      <trkpt lat="48.15647" lon="-0.21894">
        <ele>173.17</ele>
        <time>2020-06-30T12:22:21Z</time>
      </trkpt>
      <trkpt lat="48.15638" lon="-0.21888">
        <ele>172.69</ele>
        <time>2020-06-30T12:22:30Z</time>
      </trkpt>
      <trkpt lat="48.15629" lon="-0.21884">
        <ele>171.73</ele>
        <time>2020-06-30T12:22:38Z</time>
      </trkpt>
      <trkpt lat="48.15621" lon="-0.21878">
        <ele>170.77</ele>
        <time>2020-06-30T12:22:46Z</time>
      </trkpt>
      <trkpt lat="48.15611" lon="-0.2187">
        <ele>169.81</ele>
        <time>2020-06-30T12:22:55Z</time>
      </trkpt>
      <trkpt lat="48.15603" lon="-0.2186">
        <ele>169.81</ele>
        <time>2020-06-30T12:23:04Z</time>
      </trkpt>
      <trkpt lat="48.15597" lon="-0.21849">
        <ele>169.33</ele>
        <time>2020-06-30T12:23:13Z</time>
      </trkpt>
      <trkpt lat="48.15594" lon="-0.21837">
        <ele>168.37</ele>
        <time>2020-06-30T12:23:39Z</time>
      </trkpt>
      <trkpt lat="48.15596" lon="-0.21827">
        <ele>167.89</ele>
        <time>2020-06-30T12:24:12Z</time>
      </trkpt>
      <trkpt lat="48.156" lon="-0.21813">
        <ele>167.89</ele>
        <time>2020-06-30T12:24:21Z</time>
      </trkpt>
      <trkpt lat="48.15602" lon="-0.21799">
        <ele>167.89</ele>
        <time>2020-06-30T12:24:30Z</time>
      </trkpt>
      <trkpt lat="48.15603" lon="-0.21784">
        <ele>167.41</ele>
        <time>2020-06-30T12:24:39Z</time>
      </trkpt>
      <trkpt lat="48.15604" lon="-0.21769">
        <ele>167.41</ele>
        <time>2020-06-30T12:24:48Z</time>
      </trkpt>
      <trkpt lat="48.15605" lon="-0.21755">
        <ele>166.93</ele>
        <time>2020-06-30T12:24:56Z</time>
      </trkpt>
      <trkpt lat="48.15606" lon="-0.21741">
        <ele>166.93</ele>
        <time>2020-06-30T12:25:05Z</time>
      </trkpt>
      <trkpt lat="48.15608" lon="-0.21728">
        <ele>166.45</ele>
        <time>2020-06-30T12:25:12Z</time>
      </trkpt>
      <trkpt lat="48.15611" lon="-0.21712">
        <ele>165.96</ele>
        <time>2020-06-30T12:25:22Z</time>
      </trkpt>
      <trkpt lat="48.15613" lon="-0.21698">
        <ele>165.96</ele>
        <time>2020-06-30T12:25:30Z</time>
      </trkpt>
      <trkpt lat="48.15617" lon="-0.21684">
        <ele>165.48</ele>
        <time>2020-06-30T12:25:39Z</time>
      </trkpt>
      <trkpt lat="48.15618" lon="-0.2167">
        <ele>165.48</ele>
        <time>2020-06-30T12:25:47Z</time>
      </trkpt>
      <trkpt lat="48.1562" lon="-0.21657">
        <ele>165</ele>
        <time>2020-06-30T12:25:55Z</time>
      </trkpt>
      <trkpt lat="48.15621" lon="-0.21642">
        <ele>164.52</ele>
        <time>2020-06-30T12:26:03Z</time>
      </trkpt>
      <trkpt lat="48.15621" lon="-0.21628">
        <ele>164.52</ele>
        <time>2020-06-30T12:26:11Z</time>
      </trkpt>
      <trkpt lat="48.15621" lon="-0.21614">
        <ele>164.52</ele>
        <time>2020-06-30T12:26:20Z</time>
      </trkpt>
      <trkpt lat="48.15622" lon="-0.21599">
        <ele>164.04</ele>
        <time>2020-06-30T12:26:29Z</time>
      </trkpt>
      <trkpt lat="48.15624" lon="-0.21584">
        <ele>164.04</ele>
        <time>2020-06-30T12:26:38Z</time>
      </trkpt>
      <trkpt lat="48.15627" lon="-0.2157">
        <ele>163.56</ele>
        <time>2020-06-30T12:26:47Z</time>
      </trkpt>
      <trkpt lat="48.15628" lon="-0.21554">
        <ele>163.56</ele>
        <time>2020-06-30T12:26:55Z</time>
      </trkpt>
      <trkpt lat="48.15631" lon="-0.21539">
        <ele>163.08</ele>
        <time>2020-06-30T12:27:03Z</time>
      </trkpt>
      <trkpt lat="48.15633" lon="-0.21523">
        <ele>162.6</ele>
        <time>2020-06-30T12:27:11Z</time>
      </trkpt>
      <trkpt lat="48.15636" lon="-0.21509">
        <ele>162.12</ele>
        <time>2020-06-30T12:27:20Z</time>
      </trkpt>
      <trkpt lat="48.15638" lon="-0.21495">
        <ele>161.64</ele>
        <time>2020-06-30T12:27:28Z</time>
      </trkpt>
      <trkpt lat="48.15641" lon="-0.21481">
        <ele>161.64</ele>
        <time>2020-06-30T12:27:37Z</time>
      </trkpt>
      <trkpt lat="48.15644" lon="-0.21466">
        <ele>160.68</ele>
        <time>2020-06-30T12:27:45Z</time>
      </trkpt>
      <trkpt lat="48.15647" lon="-0.21452">
        <ele>160.2</ele>
        <time>2020-06-30T12:27:54Z</time>
      </trkpt>
      <trkpt lat="48.1565" lon="-0.21438">
        <ele>159.72</ele>
        <time>2020-06-30T12:28:02Z</time>
      </trkpt>
      <trkpt lat="48.15652" lon="-0.21423">
        <ele>159.24</ele>
        <time>2020-06-30T12:28:11Z</time>
      </trkpt>
      <trkpt lat="48.15655" lon="-0.21409">
        <ele>159.24</ele>
        <time>2020-06-30T12:28:18Z</time>
      </trkpt>
      <trkpt lat="48.15657" lon="-0.21391">
        <ele>158.75</ele>
        <time>2020-06-30T12:28:28Z</time>
      </trkpt>
      <trkpt lat="48.1566" lon="-0.21378">
        <ele>158.75</ele>
        <time>2020-06-30T12:28:36Z</time>
      </trkpt>
      <trkpt lat="48.15662" lon="-0.21362">
        <ele>157.79</ele>
        <time>2020-06-30T12:28:44Z</time>
      </trkpt>
      <trkpt lat="48.15664" lon="-0.21346">
        <ele>157.79</ele>
        <time>2020-06-30T12:28:53Z</time>
      </trkpt>
      <trkpt lat="48.15668" lon="-0.21332">
        <ele>156.83</ele>
        <time>2020-06-30T12:29:01Z</time>
      </trkpt>
      <trkpt lat="48.15671" lon="-0.21316">
        <ele>156.83</ele>
        <time>2020-06-30T12:29:09Z</time>
      </trkpt>
      <trkpt lat="48.15673" lon="-0.21303">
        <ele>156.35</ele>
        <time>2020-06-30T12:29:17Z</time>
      </trkpt>
      <trkpt lat="48.15678" lon="-0.21291">
        <ele>155.87</ele>
        <time>2020-06-30T12:29:26Z</time>
      </trkpt>
      <trkpt lat="48.1569" lon="-0.21272">
        <ele>156.35</ele>
        <time>2020-06-30T12:31:27Z</time>
      </trkpt>
      <trkpt lat="48.15699" lon="-0.21267">
        <ele>156.35</ele>
        <time>2020-06-30T12:31:39Z</time>
      </trkpt>
      <trkpt lat="48.15709" lon="-0.21265">
        <ele>156.35</ele>
        <time>2020-06-30T12:31:48Z</time>
      </trkpt>
      <trkpt lat="48.15719" lon="-0.21265">
        <ele>156.35</ele>
        <time>2020-06-30T12:31:57Z</time>
      </trkpt>
      <trkpt lat="48.15727" lon="-0.2126">
        <ele>156.35</ele>
        <time>2020-06-30T12:32:06Z</time>
      </trkpt>
      <trkpt lat="48.15731" lon="-0.21248">
        <ele>156.35</ele>
        <time>2020-06-30T12:32:17Z</time>
      </trkpt>
      <trkpt lat="48.15732" lon="-0.21234">
        <ele>156.35</ele>
        <time>2020-06-30T12:32:26Z</time>
      </trkpt>
      <trkpt lat="48.15736" lon="-0.21219">
        <ele>156.35</ele>
        <time>2020-06-30T12:32:35Z</time>
      </trkpt>
      <trkpt lat="48.15741" lon="-0.21206">
        <ele>156.35</ele>
        <time>2020-06-30T12:32:45Z</time>
      </trkpt>
      <trkpt lat="48.15746" lon="-0.21194">
        <ele>156.35</ele>
        <time>2020-06-30T12:32:54Z</time>
      </trkpt>
      <trkpt lat="48.1575" lon="-0.21182">
        <ele>156.35</ele>
        <time>2020-06-30T12:33:03Z</time>
      </trkpt>
      <trkpt lat="48.15755" lon="-0.21169">
        <ele>156.83</ele>
        <time>2020-06-30T12:33:13Z</time>
      </trkpt>
      <trkpt lat="48.15761" lon="-0.21156">
        <ele>156.83</ele>
        <time>2020-06-30T12:33:22Z</time>
      </trkpt>
      <trkpt lat="48.15766" lon="-0.21144">
        <ele>156.83</ele>
        <time>2020-06-30T12:33:30Z</time>
      </trkpt>
      <trkpt lat="48.15771" lon="-0.21133">
        <ele>156.83</ele>
        <time>2020-06-30T12:33:52Z</time>
      </trkpt>
      <trkpt lat="48.15776" lon="-0.21121">
        <ele>156.83</ele>
        <time>2020-06-30T12:34:00Z</time>
      </trkpt>
      <trkpt lat="48.1578" lon="-0.21109">
        <ele>156.83</ele>
        <time>2020-06-30T12:34:08Z</time>
      </trkpt>
      <trkpt lat="48.15784" lon="-0.21095">
        <ele>156.83</ele>
        <time>2020-06-30T12:34:17Z</time>
      </trkpt>
      <trkpt lat="48.15786" lon="-0.2108">
        <ele>157.79</ele>
        <time>2020-06-30T12:34:26Z</time>
      </trkpt>
      <trkpt lat="48.1579" lon="-0.21062">
        <ele>158.27</ele>
        <time>2020-06-30T12:34:34Z</time>
      </trkpt>
      <trkpt lat="48.15794" lon="-0.21047">
        <ele>158.27</ele>
        <time>2020-06-30T12:34:43Z</time>
      </trkpt>
      <trkpt lat="48.15798" lon="-0.21033">
        <ele>158.27</ele>
        <time>2020-06-30T12:34:52Z</time>
      </trkpt>
      <trkpt lat="48.15803" lon="-0.21018">
        <ele>158.27</ele>
        <time>2020-06-30T12:35:00Z</time>
      </trkpt>
      <trkpt lat="48.15806" lon="-0.21005">
        <ele>156.83</ele>
        <time>2020-06-30T12:35:07Z</time>
      </trkpt>
      <trkpt lat="48.15812" lon="-0.20989">
        <ele>156.35</ele>
        <time>2020-06-30T12:35:16Z</time>
      </trkpt>
      <trkpt lat="48.15817" lon="-0.20977">
        <ele>156.35</ele>
        <time>2020-06-30T12:35:24Z</time>
      </trkpt>
      <trkpt lat="48.15821" lon="-0.20965">
        <ele>155.87</ele>
        <time>2020-06-30T12:35:32Z</time>
      </trkpt>
      <trkpt lat="48.15826" lon="-0.20953">
        <ele>154.91</ele>
        <time>2020-06-30T12:35:40Z</time>
      </trkpt>
      <trkpt lat="48.15832" lon="-0.20942">
        <ele>154.91</ele>
        <time>2020-06-30T12:35:48Z</time>
      </trkpt>
      <trkpt lat="48.15838" lon="-0.20929">
        <ele>154.43</ele>
        <time>2020-06-30T12:35:56Z</time>
      </trkpt>
      <trkpt lat="48.15844" lon="-0.20918">
        <ele>154.43</ele>
        <time>2020-06-30T12:36:04Z</time>
      </trkpt>
      <trkpt lat="48.1585" lon="-0.20905">
        <ele>154.43</ele>
        <time>2020-06-30T12:36:13Z</time>
      </trkpt>
      <trkpt lat="48.15854" lon="-0.20893">
        <ele>153.95</ele>
        <time>2020-06-30T12:36:21Z</time>
      </trkpt>
      <trkpt lat="48.15859" lon="-0.20879">
        <ele>153.95</ele>
        <time>2020-06-30T12:36:30Z</time>
      </trkpt>
      <trkpt lat="48.15865" lon="-0.20865">
        <ele>153.95</ele>
        <time>2020-06-30T12:36:39Z</time>
      </trkpt>
      <trkpt lat="48.1587" lon="-0.20853">
        <ele>153.95</ele>
        <time>2020-06-30T12:36:47Z</time>
      </trkpt>
      <trkpt lat="48.15874" lon="-0.20838">
        <ele>153.47</ele>
        <time>2020-06-30T12:36:56Z</time>
      </trkpt>
      <trkpt lat="48.15878" lon="-0.20817">
        <ele>153.47</ele>
        <time>2020-06-30T12:37:51Z</time>
      </trkpt>
      <trkpt lat="48.15881" lon="-0.20803">
        <ele>154.43</ele>
        <time>2020-06-30T12:39:06Z</time>
      </trkpt>
      <trkpt lat="48.15888" lon="-0.2078">
        <ele>154.43</ele>
        <time>2020-06-30T12:39:40Z</time>
      </trkpt>
      <trkpt lat="48.15893" lon="-0.20768">
        <ele>154.91</ele>
        <time>2020-06-30T12:39:50Z</time>
      </trkpt>
      <trkpt lat="48.15897" lon="-0.20754">
        <ele>154.91</ele>
        <time>2020-06-30T12:39:58Z</time>
      </trkpt>
      <trkpt lat="48.15902" lon="-0.20739">
        <ele>154.91</ele>
        <time>2020-06-30T12:40:05Z</time>
      </trkpt>
      <trkpt lat="48.15906" lon="-0.20727">
        <ele>154.91</ele>
        <time>2020-06-30T12:40:13Z</time>
      </trkpt>
      <trkpt lat="48.15911" lon="-0.20715">
        <ele>155.39</ele>
        <time>2020-06-30T12:40:21Z</time>
      </trkpt>
      <trkpt lat="48.15917" lon="-0.20703">
        <ele>155.39</ele>
        <time>2020-06-30T12:40:29Z</time>
      </trkpt>
      <trkpt lat="48.15923" lon="-0.2069">
        <ele>156.35</ele>
        <time>2020-06-30T12:40:39Z</time>
      </trkpt>
      <trkpt lat="48.15928" lon="-0.20678">
        <ele>156.83</ele>
        <time>2020-06-30T12:40:47Z</time>
      </trkpt>
      <trkpt lat="48.15934" lon="-0.20666">
        <ele>156.83</ele>
        <time>2020-06-30T12:40:55Z</time>
      </trkpt>
      <trkpt lat="48.15938" lon="-0.20654">
        <ele>156.35</ele>
        <time>2020-06-30T12:41:14Z</time>
      </trkpt>
      <trkpt lat="48.15942" lon="-0.20642">
        <ele>156.35</ele>
        <time>2020-06-30T12:41:22Z</time>
      </trkpt>
      <trkpt lat="48.15945" lon="-0.20628">
        <ele>156.35</ele>
        <time>2020-06-30T12:41:30Z</time>
      </trkpt>
      <trkpt lat="48.15941" lon="-0.20612">
        <ele>155.39</ele>
        <time>2020-06-30T12:41:47Z</time>
      </trkpt>
      <trkpt lat="48.15938" lon="-0.20599">
        <ele>155.39</ele>
        <time>2020-06-30T12:41:56Z</time>
      </trkpt>
      <trkpt lat="48.15933" lon="-0.20586">
        <ele>155.39</ele>
        <time>2020-06-30T12:42:05Z</time>
      </trkpt>
      <trkpt lat="48.15931" lon="-0.20572">
        <ele>154.91</ele>
        <time>2020-06-30T12:42:13Z</time>
      </trkpt>
      <trkpt lat="48.15933" lon="-0.20555">
        <ele>154.91</ele>
        <time>2020-06-30T12:42:21Z</time>
      </trkpt>
      <trkpt lat="48.15937" lon="-0.20541">
        <ele>154.43</ele>
        <time>2020-06-30T12:42:30Z</time>
      </trkpt>
      <trkpt lat="48.15942" lon="-0.20529">
        <ele>154.43</ele>
        <time>2020-06-30T12:42:37Z</time>
      </trkpt>
      <trkpt lat="48.15948" lon="-0.20517">
        <ele>153.47</ele>
        <time>2020-06-30T12:42:45Z</time>
      </trkpt>
      <trkpt lat="48.15954" lon="-0.20505">
        <ele>153.47</ele>
        <time>2020-06-30T12:42:54Z</time>
      </trkpt>
      <trkpt lat="48.1596" lon="-0.20492">
        <ele>153.47</ele>
        <time>2020-06-30T12:43:03Z</time>
      </trkpt>
      <trkpt lat="48.15965" lon="-0.20479">
        <ele>153.47</ele>
        <time>2020-06-30T12:43:12Z</time>
      </trkpt>
      <trkpt lat="48.15969" lon="-0.20466">
        <ele>153.47</ele>
        <time>2020-06-30T12:43:18Z</time>
      </trkpt>
      <trkpt lat="48.15972" lon="-0.20453">
        <ele>152.99</ele>
        <time>2020-06-30T12:43:27Z</time>
      </trkpt>
      <trkpt lat="48.15977" lon="-0.2044">
        <ele>152.99</ele>
        <time>2020-06-30T12:43:35Z</time>
      </trkpt>
      <trkpt lat="48.1598" lon="-0.20425">
        <ele>152.51</ele>
        <time>2020-06-30T12:43:43Z</time>
      </trkpt>
      <trkpt lat="48.15982" lon="-0.20412">
        <ele>152.03</ele>
        <time>2020-06-30T12:43:51Z</time>
      </trkpt>
      <trkpt lat="48.15983" lon="-0.20398">
        <ele>151.54</ele>
        <time>2020-06-30T12:43:58Z</time>
      </trkpt>
      <trkpt lat="48.15986" lon="-0.20383">
        <ele>151.06</ele>
        <time>2020-06-30T12:44:07Z</time>
      </trkpt>
      <trkpt lat="48.15988" lon="-0.2037">
        <ele>150.1</ele>
        <time>2020-06-30T12:44:15Z</time>
      </trkpt>
      <trkpt lat="48.15991" lon="-0.20355">
        <ele>149.62</ele>
        <time>2020-06-30T12:44:33Z</time>
      </trkpt>
      <trkpt lat="48.15996" lon="-0.20341">
        <ele>149.62</ele>
        <time>2020-06-30T12:44:42Z</time>
      </trkpt>
      <trkpt lat="48.16001" lon="-0.20328">
        <ele>149.14</ele>
        <time>2020-06-30T12:44:51Z</time>
      </trkpt>
      <trkpt lat="48.16003" lon="-0.20315">
        <ele>149.14</ele>
        <time>2020-06-30T12:45:09Z</time>
      </trkpt>
      <trkpt lat="48.1601" lon="-0.20303">
        <ele>148.66</ele>
        <time>2020-06-30T12:45:19Z</time>
      </trkpt>
      <trkpt lat="48.16013" lon="-0.20289">
        <ele>148.66</ele>
        <time>2020-06-30T12:45:28Z</time>
      </trkpt>
      <trkpt lat="48.16015" lon="-0.20274">
        <ele>148.66</ele>
        <time>2020-06-30T12:45:36Z</time>
      </trkpt>
      <trkpt lat="48.16016" lon="-0.20261">
        <ele>148.66</ele>
        <time>2020-06-30T12:45:44Z</time>
      </trkpt>
      <trkpt lat="48.16017" lon="-0.20247">
        <ele>148.66</ele>
        <time>2020-06-30T12:45:53Z</time>
      </trkpt>
      <trkpt lat="48.16016" lon="-0.20231">
        <ele>148.66</ele>
        <time>2020-06-30T12:46:05Z</time>
      </trkpt>
      <trkpt lat="48.16016" lon="-0.20217">
        <ele>149.62</ele>
        <time>2020-06-30T12:46:14Z</time>
      </trkpt>
      <trkpt lat="48.16016" lon="-0.20202">
        <ele>150.58</ele>
        <time>2020-06-30T12:46:23Z</time>
      </trkpt>
      <trkpt lat="48.16015" lon="-0.20187">
        <ele>151.06</ele>
        <time>2020-06-30T12:46:32Z</time>
      </trkpt>
      <trkpt lat="48.16014" lon="-0.20168">
        <ele>152.03</ele>
        <time>2020-06-30T12:46:45Z</time>
      </trkpt>
      <trkpt lat="48.16013" lon="-0.20153">
        <ele>152.99</ele>
        <time>2020-06-30T12:46:57Z</time>
      </trkpt>
      <trkpt lat="48.16012" lon="-0.2014">
        <ele>153.95</ele>
        <time>2020-06-30T12:47:53Z</time>
      </trkpt>
      <trkpt lat="48.16009" lon="-0.20124">
        <ele>152.99</ele>
        <time>2020-06-30T12:48:08Z</time>
      </trkpt>
      <trkpt lat="48.16012" lon="-0.20111">
        <ele>152.99</ele>
        <time>2020-06-30T12:48:23Z</time>
      </trkpt>
      <trkpt lat="48.16016" lon="-0.20097">
        <ele>153.95</ele>
        <time>2020-06-30T12:48:32Z</time>
      </trkpt>
      <trkpt lat="48.16018" lon="-0.20083">
        <ele>153.95</ele>
        <time>2020-06-30T12:48:41Z</time>
      </trkpt>
      <trkpt lat="48.1602" lon="-0.2007">
        <ele>153.95</ele>
        <time>2020-06-30T12:48:49Z</time>
      </trkpt>
      <trkpt lat="48.16019" lon="-0.20056">
        <ele>153.95</ele>
        <time>2020-06-30T12:48:57Z</time>
      </trkpt>
      <trkpt lat="48.16018" lon="-0.2004">
        <ele>153.95</ele>
        <time>2020-06-30T12:49:06Z</time>
      </trkpt>
      <trkpt lat="48.16016" lon="-0.20025">
        <ele>153.95</ele>
        <time>2020-06-30T12:49:15Z</time>
      </trkpt>
      <trkpt lat="48.1601" lon="-0.20014">
        <ele>153.95</ele>
        <time>2020-06-30T12:49:25Z</time>
      </trkpt>
      <trkpt lat="48.16001" lon="-0.20004">
        <ele>153.95</ele>
        <time>2020-06-30T12:49:37Z</time>
      </trkpt>
      <trkpt lat="48.15994" lon="-0.19988">
        <ele>153.95</ele>
        <time>2020-06-30T12:49:52Z</time>
      </trkpt>
      <trkpt lat="48.15986" lon="-0.19977">
        <ele>153.95</ele>
        <time>2020-06-30T12:50:02Z</time>
      </trkpt>
      <trkpt lat="48.15976" lon="-0.19955">
        <ele>153.95</ele>
        <time>2020-06-30T12:50:17Z</time>
      </trkpt>
      <trkpt lat="48.15963" lon="-0.19942">
        <ele>152.51</ele>
        <time>2020-06-30T12:50:26Z</time>
      </trkpt>
      <trkpt lat="48.15957" lon="-0.19931">
        <ele>152.51</ele>
        <time>2020-06-30T12:50:33Z</time>
      </trkpt>
      <trkpt lat="48.15946" lon="-0.19922">
        <ele>152.03</ele>
        <time>2020-06-30T12:50:47Z</time>
      </trkpt>
      <trkpt lat="48.15945" lon="-0.19909">
        <ele>152.03</ele>
        <time>2020-06-30T12:50:56Z</time>
      </trkpt>
      <trkpt lat="48.15947" lon="-0.19895">
        <ele>151.54</ele>
        <time>2020-06-30T12:51:04Z</time>
      </trkpt>
      <trkpt lat="48.1595" lon="-0.19881">
        <ele>152.03</ele>
        <time>2020-06-30T12:51:12Z</time>
      </trkpt>
      <trkpt lat="48.15951" lon="-0.19866">
        <ele>151.54</ele>
        <time>2020-06-30T12:51:23Z</time>
      </trkpt>
      <trkpt lat="48.15954" lon="-0.19848">
        <ele>151.06</ele>
        <time>2020-06-30T12:51:34Z</time>
      </trkpt>
      <trkpt lat="48.1596" lon="-0.19827">
        <ele>151.06</ele>
        <time>2020-06-30T12:51:50Z</time>
      </trkpt>
    </trkseg>
  </trk>
</gpx>